Wetterdaten: Dienstag, 21.01.2014
Datum Zeit Temp. Aussen +5cm Feuchte Auss Luftdruck Regen Sonnenschein Regendauer UV Solar Windben
21.01.2014 00:00 1,6 C 0,6 C 96 % 1009,1 hPa 0,0 l/m 0 min 0 min 0,0 UV-I 0 W/m 10,3 km/h (2 Bft)
21.01.2014 00:02 1,6 C 0,6 C 96 % 1009,1 hPa 0,0 l/m 0 min 0 min 0,0 UV-I 0 W/m 0,0 km/h (0 Bft)
21.01.2014 00:04 1,6 C 0,6 C 96 % 1009,1 hPa 0,0 l/m 0 min 0 min 0,0 UV-I 0 W/m 0,0 km/h (0 Bft)
21.01.2014 00:06 1,6 C 0,6 C 96 % 1009,1 hPa 0,0 l/m 0 min 0 min 0,0 UV-I 0 W/m 0,0 km/h (0 Bft)
21.01.2014 00:08 1,6 C 0,6 C 96 % 1009,2 hPa 0,0 l/m 0 min 0 min 0,0 UV-I 0 W/m 5,1 km/h (1 Bft)
21.01.2014 00:10 1,6 C 0,6 C 96 % 1009,2 hPa 0,0 l/m 0 min 0 min 0,0 UV-I 0 W/m 0,0 km/h (0 Bft)
21.01.2014 00:12 1,6 C 0,6 C 96 % 1009,2 hPa 0,0 l/m 0 min 0 min 0,0 UV-I 0 W/m 2,6 km/h (1 Bft)
21.01.2014 00:14 1,6 C 0,6 C 96 % 1009,2 hPa 0,0 l/m 0 min 0 min 0,0 UV-I 0 W/m 0,0 km/h (0 Bft)
21.01.2014 00:16 1,6 C 0,6 C 96 % 1009,2 hPa 0,0 l/m 0 min 0 min 0,0 UV-I 0 W/m 0,0 km/h (0 Bft)
21.01.2014 00:18 1,6 C 0,6 C 96 % 1009,2 hPa 0,0 l/m 0 min 0 min 0,0 UV-I 0 W/m 0,0 km/h (0 Bft)
21.01.2014 00:20 1,6 C 0,6 C 96 % 1009,3 hPa 0,0 l/m 0 min 0 min 0,0 UV-I 0 W/m 5,1 km/h (1 Bft)
21.01.2014 00:22 1,6 C 0,6 C 96 % 1009,2 hPa 0,0 l/m 0 min 0 min 0,0 UV-I 0 W/m 0,0 km/h (0 Bft)
21.01.2014 00:24 1,6 C 0,6 C 96 % 1009,2 hPa 0,0 l/m 0 min 0 min 0,0 UV-I 0 W/m 0,0 km/h (0 Bft)
21.01.2014 00:26 1,6 C 0,6 C 96 % 1009,3 hPa 0,0 l/m 0 min 0 min 0,0 UV-I 0 W/m 0,0 km/h (0 Bft)
21.01.2014 00:28 1,6 C 0,6 C 96 % 1009,2 hPa 0,0 l/m 0 min 0 min 0,0 UV-I 0 W/m 2,6 km/h (1 Bft)
21.01.2014 00:30 1,6 C 0,6 C 96 % 1009,3 hPa 0,0 l/m 0 min 0 min 0,0 UV-I 0 W/m 7,7 km/h (2 Bft)
21.01.2014 00:32 1,6 C 0,6 C 96 % 1009,2 hPa 0,0 l/m 0 min 0 min 0,0 UV-I 0 W/m 5,1 km/h (1 Bft)
21.01.2014 00:34 1,6 C 0,6 C 96 % 1009,3 hPa 0,0 l/m 0 min 0 min 0,0 UV-I 0 W/m 2,6 km/h (1 Bft)
21.01.2014 00:36 1,6 C 0,6 C 96 % 1009,3 hPa 0,0 l/m 0 min 0 min 0,0 UV-I 0 W/m 0,0 km/h (0 Bft)
21.01.2014 00:38 1,6 C 0,6 C 96 % 1009,3 hPa 0,0 l/m 0 min 0 min 0,0 UV-I 0 W/m 7,7 km/h (2 Bft)
21.01.2014 00:40 1,5 C 0,6 C 96 % 1009,3 hPa 0,0 l/m 0 min 0 min 0,0 UV-I 0 W/m 10,3 km/h (2 Bft)
21.01.2014 00:42 1,5 C 0,6 C 96 % 1009,2 hPa 0,0 l/m 0 min 0 min 0,0 UV-I 0 W/m 5,1 km/h (1 Bft)
21.01.2014 00:44 1,5 C 0,6 C 96 % 1009,2 hPa 0,0 l/m 0 min 0 min 0,0 UV-I 0 W/m 5,1 km/h (1 Bft)
21.01.2014 00:46 1,5 C 0,6 C 96 % 1009,2 hPa 0,0 l/m 0 min 0 min 0,0 UV-I 0 W/m 2,6 km/h (1 Bft)
21.01.2014 00:48 1,5 C 0,6 C 96 % 1009,2 hPa 0,0 l/m 0 min 0 min 0,0 UV-I 0 W/m 7,7 km/h (2 Bft)
21.01.2014 00:50 1,5 C 0,6 C 96 % 1009,2 hPa 0,0 l/m 0 min 0 min 0,0 UV-I 0 W/m 0,0 km/h (0 Bft)
21.01.2014 00:52 1,5 C 0,6 C 96 % 1009,2 hPa 0,0 l/m 0 min 0 min 0,0 UV-I 0 W/m 0,0 km/h (0 Bft)
21.01.2014 00:54 1,5 C 0,6 C 96 % 1009,3 hPa 0,0 l/m 0 min 0 min 0,0 UV-I 0 W/m 2,6 km/h (1 Bft)
21.01.2014 00:56 1,5 C 0,6 C 96 % 1009,3 hPa 0,0 l/m 0 min 0 min 0,0 UV-I 0 W/m 0,0 km/h (0 Bft)
21.01.2014 00:58 1,5 C 0,6 C 96 % 1009,2 hPa 0,0 l/m 0 min 0 min 0,0 UV-I 0 W/m 0,0 km/h (0 Bft)
21.01.2014 01:00 1,5 C 0,6 C 96 % 1009,2 hPa 0,0 l/m 0 min 0 min 0,0 UV-I 0 W/m 0,0 km/h (0 Bft)
21.01.2014 01:02 1,5 C 0,6 C 97 % 1009,2 hPa 0,0 l/m 0 min 0 min 0,0 UV-I 0 W/m 5,1 km/h (1 Bft)
21.01.2014 01:04 1,5 C 0,6 C 97 % 1009,2 hPa 0,0 l/m 0 min 0 min 0,0 UV-I 0 W/m 0,0 km/h (0 Bft)
21.01.2014 01:06 1,5 C 0,6 C 97 % 1009,2 hPa 0,0 l/m 0 min 0 min 0,0 UV-I 0 W/m 0,0 km/h (0 Bft)
21.01.2014 01:08 1,5 C 0,6 C 97 % 1009,2 hPa 0,0 l/m 0 min 0 min 0,0 UV-I 0 W/m 0,0 km/h (0 Bft)
21.01.2014 01:10 1,5 C 0,6 C 97 % 1009,2 hPa 0,0 l/m 0 min 0 min 0,0 UV-I 0 W/m 2,6 km/h (1 Bft)
21.01.2014 01:12 1,5 C 0,6 C 97 % 1009,2 hPa 0,0 l/m 0 min 0 min 0,0 UV-I 0 W/m 0,0 km/h (0 Bft)
21.01.2014 01:14 1,5 C 0,6 C 97 % 1009,2 hPa 0,0 l/m 0 min 0 min 0,0 UV-I 0 W/m 2,6 km/h (1 Bft)
21.01.2014 01:16 1,5 C 0,6 C 97 % 1009,2 hPa 0,0 l/m 0 min 0 min 0,0 UV-I 0 W/m 0,0 km/h (0 Bft)
21.01.2014 01:18 1,5 C 0,6 C 97 % 1009,2 hPa 0,0 l/m 0 min 0 min 0,0 UV-I 0 W/m 2,6 km/h (1 Bft)
21.01.2014 01:20 1,5 C 0,6 C 97 % 1009,1 hPa 0,0 l/m 0 min 0 min 0,0 UV-I 0 W/m 0,0 km/h (0 Bft)
21.01.2014 01:22 1,5 C 0,6 C 97 % 1009,2 hPa 0,0 l/m 0 min 0 min 0,0 UV-I 0 W/m 0,0 km/h (0 Bft)
21.01.2014 01:24 1,5 C 0,6 C 97 % 1009,2 hPa 0,0 l/m 0 min 0 min 0,0 UV-I 0 W/m 0,0 km/h (0 Bft)
21.01.2014 01:26 1,5 C 0,6 C 97 % 1009,2 hPa 0,0 l/m 0 min 0 min 0,0 UV-I 0 W/m 0,0 km/h (0 Bft)
21.01.2014 01:28 1,5 C 0,6 C 97 % 1009,2 hPa 0,0 l/m 0 min 0 min 0,0 UV-I 0 W/m 2,6 km/h (1 Bft)
21.01.2014 01:30 1,5 C 0,6 C 97 % 1009,2 hPa 0,0 l/m 0 min 0 min 0,0 UV-I 0 W/m 0,0 km/h (0 Bft)
21.01.2014 01:32 1,5 C 0,6 C 97 % 1009,2 hPa 0,0 l/m 0 min 0 min 0,0 UV-I 0 W/m 7,7 km/h (2 Bft)
21.01.2014 01:34 1,5 C 0,6 C 97 % 1009,2 hPa 0,0 l/m 0 min 0 min 0,0 UV-I 0 W/m 2,6 km/h (1 Bft)
21.01.2014 01:36 1,5 C 0,6 C 97 % 1009,2 hPa 0,0 l/m 0 min 0 min 0,0 UV-I 0 W/m 2,6 km/h (1 Bft)
21.01.2014 01:38 1,5 C 0,6 C 97 % 1009,2 hPa 0,0 l/m 0 min 0 min 0,0 UV-I 0 W/m 0,0 km/h (0 Bft)
21.01.2014 01:40 1,5 C 0,6 C 97 % 1009,3 hPa 0,0 l/m 0 min 0 min 0,0 UV-I 0 W/m 0,0 km/h (0 Bft)
21.01.2014 01:42 1,5 C 0,6 C 97 % 1009,3 hPa 0,0 l/m 0 min 0 min 0,0 UV-I 0 W/m 0,0 km/h (0 Bft)
21.01.2014 01:44 1,5 C 0,6 C 97 % 1009,3 hPa 0,0 l/m 0 min 0 min 0,0 UV-I 0 W/m 0,0 km/h (0 Bft)
21.01.2014 01:46 1,5 C 0,6 C 97 % 1009,3 hPa 0,0 l/m 0 min 0 min 0,0 UV-I 0 W/m 0,0 km/h (0 Bft)
21.01.2014 01:48 1,6 C 0,6 C 97 % 1009,3 hPa 0,0 l/m 0 min 0 min 0,0 UV-I 0 W/m 0,0 km/h (0 Bft)
21.01.2014 01:50 1,6 C 0,6 C 97 % 1009,3 hPa 0,0 l/m 0 min 0 min 0,0 UV-I 0 W/m 0,0 km/h (0 Bft)
21.01.2014 01:52 1,6 C 0,6 C 97 % 1009,4 hPa 0,0 l/m 0 min 0 min 0,0 UV-I 0 W/m 0,0 km/h (0 Bft)
21.01.2014 01:54 1,6 C 0,6 C 97 % 1009,4 hPa 0,0 l/m 0 min 0 min 0,0 UV-I 0 W/m 2,6 km/h (1 Bft)
21.01.2014 01:56 1,6 C 0,6 C 97 % 1009,4 hPa 0,0 l/m 0 min 0 min 0,0 UV-I 0 W/m 0,0 km/h (0 Bft)
21.01.2014 01:58 1,5 C 0,6 C 97 % 1009,5 hPa 0,0 l/m 0 min 0 min 0,0 UV-I 0 W/m 2,6 km/h (1 Bft)
21.01.2014 02:00 1,5 C 0,6 C 97 % 1009,4 hPa 0,0 l/m 0 min 0 min 0,0 UV-I 0 W/m 0,0 km/h (0 Bft)
21.01.2014 02:02 1,6 C 0,6 C 97 % 1009,5 hPa 0,0 l/m 0 min 0 min 0,0 UV-I 0 W/m 2,6 km/h (1 Bft)
21.01.2014 02:04 1,5 C 0,6 C 97 % 1009,6 hPa 0,0 l/m 0 min 0 min 0,0 UV-I 0 W/m 0,0 km/h (0 Bft)
21.01.2014 02:06 1,5 C 0,6 C 97 % 1009,5 hPa 0,0 l/m 0 min 0 min 0,0 UV-I 0 W/m 5,1 km/h (1 Bft)
21.01.2014 02:08 1,5 C 0,6 C 97 % 1009,6 hPa 0,0 l/m 0 min 0 min 0,0 UV-I 0 W/m 0,0 km/h (0 Bft)
21.01.2014 02:10 1,5 C 0,6 C 97 % 1009,6 hPa 0,0 l/m 0 min 0 min 0,0 UV-I 0 W/m 0,0 km/h (0 Bft)
21.01.2014 02:12 1,5 C 0,6 C 97 % 1009,7 hPa 0,0 l/m 0 min 0 min 0,0 UV-I 0 W/m 7,7 km/h (2 Bft)
21.01.2014 02:14 1,5 C 0,6 C 97 % 1009,7 hPa 0,0 l/m 0 min 0 min 0,0 UV-I 0 W/m 0,0 km/h (0 Bft)
21.01.2014 02:16 1,5 C 0,6 C 97 % 1009,6 hPa 0,0 l/m 0 min 0 min 0,0 UV-I 0 W/m 0,0 km/h (0 Bft)
21.01.2014 02:18 1,5 C 0,6 C 97 % 1009,7 hPa 0,0 l/m 0 min 0 min 0,0 UV-I 0 W/m 0,0 km/h (0 Bft)
21.01.2014 02:20 1,5 C 0,6 C 97 % 1009,7 hPa 0,0 l/m 0 min 0 min 0,0 UV-I 0 W/m 0,0 km/h (0 Bft)
21.01.2014 02:22 1,5 C 0,6 C 97 % 1009,7 hPa 0,0 l/m 0 min 0 min 0,0 UV-I 0 W/m 2,6 km/h (1 Bft)
21.01.2014 02:24 1,5 C 0,6 C 97 % 1009,7 hPa 0,0 l/m 0 min 0 min 0,0 UV-I 0 W/m 0,0 km/h (0 Bft)
21.01.2014 02:26 1,5 C 0,6 C 97 % 1009,7 hPa 0,0 l/m 0 min 0 min 0,0 UV-I 0 W/m 0,0 km/h (0 Bft)
21.01.2014 02:28 1,5 C 0,6 C 97 % 1009,7 hPa 0,0 l/m 0 min 0 min 0,0 UV-I 0 W/m 0,0 km/h (0 Bft)
21.01.2014 02:30 1,4 C 0,6 C 97 % 1009,8 hPa 0,0 l/m 0 min 0 min 0,0 UV-I 0 W/m 0,0 km/h (0 Bft)
21.01.2014 02:32 1,4 C 0,6 C 97 % 1009,8 hPa 0,0 l/m 0 min 0 min 0,0 UV-I 0 W/m 0,0 km/h (0 Bft)
21.01.2014 02:34 1,4 C 0,6 C 97 % 1009,8 hPa 0,0 l/m 0 min 0 min 0,0 UV-I 0 W/m 2,6 km/h (1 Bft)
21.01.2014 02:36 1,4 C 0,6 C 97 % 1009,8 hPa 0,0 l/m 0 min 0 min 0,0 UV-I 0 W/m 0,0 km/h (0 Bft)
21.01.2014 02:38 1,4 C 0,6 C 97 % 1009,9 hPa 0,0 l/m 0 min 0 min 0,0 UV-I 0 W/m 5,1 km/h (1 Bft)
21.01.2014 02:40 1,4 C 0,6 C 97 % 1009,9 hPa 0,0 l/m 0 min 0 min 0,0 UV-I 0 W/m 2,6 km/h (1 Bft)
21.01.2014 02:42 1,4 C 0,6 C 97 % 1009,9 hPa 0,0 l/m 0 min 0 min 0,0 UV-I 0 W/m 5,1 km/h (1 Bft)
21.01.2014 02:44 1,4 C 0,6 C 97 % 1009,9 hPa 0,0 l/m 0 min 0 min 0,0 UV-I 0 W/m 0,0 km/h (0 Bft)
21.01.2014 02:46 1,4 C 0,6 C 97 % 1009,9 hPa 0,0 l/m 0 min 0 min 0,0 UV-I 0 W/m 0,0 km/h (0 Bft)
21.01.2014 02:48 1,4 C 0,6 C 97 % 1009,9 hPa 0,0 l/m 0 min 0 min 0,0 UV-I 0 W/m 0,0 km/h (0 Bft)
21.01.2014 02:50 1,4 C 0,6 C 97 % 1010,0 hPa 0,0 l/m 0 min 0 min 0,0 UV-I 0 W/m 0,0 km/h (0 Bft)
21.01.2014 02:52 1,4 C 0,6 C 97 % 1010,0 hPa 0,0 l/m 0 min 0 min 0,0 UV-I 0 W/m 0,0 km/h (0 Bft)
21.01.2014 02:54 1,4 C 0,6 C 97 % 1010,0 hPa 0,0 l/m 0 min 0 min 0,0 UV-I 0 W/m 5,1 km/h (1 Bft)
21.01.2014 02:56 1,4 C 0,6 C 97 % 1009,9 hPa 0,0 l/m 0 min 0 min 0,0 UV-I 0 W/m 0,0 km/h (0 Bft)
21.01.2014 02:58 1,4 C 0,6 C 97 % 1010,0 hPa 0,0 l/m 0 min 0 min 0,0 UV-I 0 W/m 0,0 km/h (0 Bft)
21.01.2014 03:00 1,4 C 0,6 C 97 % 1009,9 hPa 0,0 l/m 0 min 0 min 0,0 UV-I 0 W/m 2,6 km/h (1 Bft)
21.01.2014 03:02 1,4 C 0,6 C 97 % 1010,0 hPa 0,0 l/m 0 min 0 min 0,0 UV-I 0 W/m 0,0 km/h (0 Bft)
21.01.2014 03:04 1,4 C 0,6 C 97 % 1009,9 hPa 0,0 l/m 0 min 0 min 0,0 UV-I 0 W/m 0,0 km/h (0 Bft)
21.01.2014 03:06 1,4 C 0,6 C 97 % 1010,0 hPa 0,0 l/m 0 min 0 min 0,0 UV-I 0 W/m 0,0 km/h (0 Bft)
21.01.2014 03:08 1,4 C 0,6 C 97 % 1010,0 hPa 0,0 l/m 0 min 0 min 0,0 UV-I 0 W/m 2,6 km/h (1 Bft)
21.01.2014 03:10 1,4 C 0,6 C 97 % 1010,0 hPa 0,0 l/m 0 min 0 min 0,0 UV-I 0 W/m 0,0 km/h (0 Bft)
21.01.2014 03:12 1,4 C 0,6 C 97 % 1010,0 hPa 0,0 l/m 0 min 0 min 0,0 UV-I 0 W/m 2,6 km/h (1 Bft)
21.01.2014 03:14 1,4 C 0,6 C 97 % 1009,9 hPa 0,0 l/m 0 min 0 min 0,0 UV-I 0 W/m 2,6 km/h (1 Bft)
21.01.2014 03:16 1,4 C 0,6 C 97 % 1009,9 hPa 0,0 l/m 0 min 0 min 0,0 UV-I 0 W/m 5,1 km/h (1 Bft)
21.01.2014 03:18 1,4 C 0,6 C 97 % 1010,0 hPa 0,0 l/m 0 min 0 min 0,0 UV-I 0 W/m 0,0 km/h (0 Bft)
21.01.2014 03:20 1,4 C 0,6 C 97 % 1010,0 hPa 0,0 l/m 0 min 0 min 0,0 UV-I 0 W/m 0,0 km/h (0 Bft)
21.01.2014 03:22 1,3 C 0,6 C 97 % 1010,0 hPa 0,0 l/m 0 min 0 min 0,0 UV-I 0 W/m 0,0 km/h (0 Bft)
21.01.2014 03:24 1,3 C 0,6 C 97 % 1010,0 hPa 0,0 l/m 0 min 0 min 0,0 UV-I 0 W/m 0,0 km/h (0 Bft)
21.01.2014 03:26 1,3 C 0,6 C 97 % 1010,0 hPa 0,0 l/m 0 min 0 min 0,0 UV-I 0 W/m 0,0 km/h (0 Bft)
21.01.2014 03:28 1,4 C 0,6 C 97 % 1010,0 hPa 0,0 l/m 0 min 0 min 0,0 UV-I 0 W/m 0,0 km/h (0 Bft)
21.01.2014 03:30 1,3 C 0,6 C 97 % 1010,0 hPa 0,0 l/m 0 min 0 min 0,0 UV-I 0 W/m 0,0 km/h (0 Bft)
21.01.2014 03:32 1,4 C 0,6 C 97 % 1010,0 hPa 0,0 l/m 0 min 0 min 0,0 UV-I 0 W/m 0,0 km/h (0 Bft)
21.01.2014 03:34 1,3 C 0,6 C 97 % 1010,1 hPa 0,0 l/m 0 min 0 min 0,0 UV-I 0 W/m 0,0 km/h (0 Bft)
21.01.2014 03:36 1,4 C 0,6 C 97 % 1010,0 hPa 0,0 l/m 0 min 0 min 0,0 UV-I 0 W/m 0,0 km/h (0 Bft)
21.01.2014 03:38 1,3 C 0,6 C 97 % 1010,1 hPa 0,0 l/m 0 min 0 min 0,0 UV-I 0 W/m 0,0 km/h (0 Bft)
21.01.2014 03:40 1,4 C 0,6 C 97 % 1010,0 hPa 0,0 l/m 0 min 0 min 0,0 UV-I 0 W/m 2,6 km/h (1 Bft)
21.01.2014 03:42 1,4 C 0,6 C 97 % 1010,1 hPa 0,0 l/m 0 min 0 min 0,0 UV-I 0 W/m 0,0 km/h (0 Bft)
21.01.2014 03:44 1,4 C 0,6 C 97 % 1010,1 hPa 0,0 l/m 0 min 0 min 0,0 UV-I 0 W/m 0,0 km/h (0 Bft)
21.01.2014 03:46 1,4 C 0,6 C 97 % 1010,1 hPa 0,0 l/m 0 min 0 min 0,0 UV-I 0 W/m 0,0 km/h (0 Bft)
21.01.2014 03:48 1,4 C 0,6 C 97 % 1010,1 hPa 0,0 l/m 0 min 0 min 0,0 UV-I 0 W/m 0,0 km/h (0 Bft)
21.01.2014 03:50 1,4 C 0,6 C 97 % 1010,1 hPa 0,0 l/m 0 min 0 min 0,0 UV-I 0 W/m 0,0 km/h (0 Bft)
21.01.2014 03:52 1,4 C 0,6 C 97 % 1010,1 hPa 0,0 l/m 0 min 0 min 0,0 UV-I 0 W/m 0,0 km/h (0 Bft)
21.01.2014 03:54 1,4 C 0,6 C 97 % 1010,1 hPa 0,0 l/m 0 min 0 min 0,0 UV-I 0 W/m 0,0 km/h (0 Bft)
21.01.2014 03:56 1,4 C 0,6 C 97 % 1010,1 hPa 0,0 l/m 0 min 0 min 0,0 UV-I 0 W/m 0,0 km/h (0 Bft)
21.01.2014 03:58 1,3 C 0,6 C 97 % 1010,1 hPa 0,0 l/m 0 min 0 min 0,0 UV-I 0 W/m 0,0 km/h (0 Bft)
21.01.2014 04:00 1,3 C 0,6 C 97 % 1010,1 hPa 0,0 l/m 0 min 0 min 0,0 UV-I 0 W/m 0,0 km/h (0 Bft)
21.01.2014 04:02 1,3 C 0,6 C 97 % 1010,1 hPa 0,0 l/m 0 min 0 min 0,0 UV-I 0 W/m 0,0 km/h (0 Bft)
21.01.2014 04:04 1,4 C 0,6 C 97 % 1010,1 hPa 0,0 l/m 0 min 0 min 0,0 UV-I 0 W/m 0,0 km/h (0 Bft)
21.01.2014 04:06 1,3 C 0,6 C 97 % 1010,2 hPa 0,0 l/m 0 min 0 min 0,0 UV-I 0 W/m 0,0 km/h (0 Bft)
21.01.2014 04:08 1,4 C 0,6 C 97 % 1010,1 hPa 0,0 l/m 0 min 0 min 0,0 UV-I 0 W/m 0,0 km/h (0 Bft)
21.01.2014 04:10 1,4 C 0,6 C 97 % 1010,2 hPa 0,0 l/m 0 min 0 min 0,0 UV-I 0 W/m 0,0 km/h (0 Bft)
21.01.2014 04:12 1,4 C 0,6 C 97 % 1010,2 hPa 0,0 l/m 0 min 0 min 0,0 UV-I 0 W/m 0,0 km/h (0 Bft)
21.01.2014 04:14 1,3 C 0,6 C 97 % 1010,2 hPa 0,0 l/m 0 min 0 min 0,0 UV-I 0 W/m 0,0 km/h (0 Bft)
21.01.2014 04:16 1,4 C 0,6 C 97 % 1010,1 hPa 0,0 l/m 0 min 0 min 0,0 UV-I 0 W/m 0,0 km/h (0 Bft)
21.01.2014 04:18 1,4 C 0,6 C 97 % 1010,0 hPa 0,0 l/m 0 min 0 min 0,0 UV-I 0 W/m 0,0 km/h (0 Bft)
21.01.2014 04:20 1,3 C 0,6 C 97 % 1010,1 hPa 0,0 l/m 0 min 0 min 0,0 UV-I 0 W/m 2,6 km/h (1 Bft)
21.01.2014 04:22 1,4 C 0,6 C 97 % 1010,0 hPa 0,0 l/m 0 min 0 min 0,0 UV-I 0 W/m 0,0 km/h (0 Bft)
21.01.2014 04:24 1,4 C 0,6 C 97 % 1010,1 hPa 0,0 l/m 0 min 0 min 0,0 UV-I 0 W/m 5,1 km/h (1 Bft)
21.01.2014 04:26 1,4 C 0,6 C 97 % 1010,1 hPa 0,0 l/m 0 min 0 min 0,0 UV-I 0 W/m 0,0 km/h (0 Bft)
21.01.2014 04:28 1,4 C 0,6 C 97 % 1010,2 hPa 0,0 l/m 0 min 0 min 0,0 UV-I 0 W/m 2,6 km/h (1 Bft)
21.01.2014 04:30 1,4 C 0,6 C 97 % 1010,1 hPa 0,0 l/m 0 min 0 min 0,0 UV-I 0 W/m 0,0 km/h (0 Bft)
21.01.2014 04:32 1,4 C 0,6 C 97 % 1010,1 hPa 0,0 l/m 0 min 0 min 0,0 UV-I 0 W/m 0,0 km/h (0 Bft)
21.01.2014 04:34 1,4 C 0,6 C 97 % 1010,1 hPa 0,0 l/m 0 min 0 min 0,0 UV-I 0 W/m 0,0 km/h (0 Bft)
21.01.2014 04:36 1,4 C 0,6 C 97 % 1010,1 hPa 0,0 l/m 0 min 0 min 0,0 UV-I 0 W/m 0,0 km/h (0 Bft)
21.01.2014 04:38 1,4 C 0,6 C 97 % 1010,1 hPa 0,0 l/m 0 min 0 min 0,0 UV-I 0 W/m 2,6 km/h (1 Bft)
21.01.2014 04:40 1,4 C 0,6 C 97 % 1010,1 hPa 0,0 l/m 0 min 0 min 0,0 UV-I 0 W/m 0,0 km/h (0 Bft)
21.01.2014 04:42 1,4 C 0,6 C 97 % 1010,2 hPa 0,0 l/m 0 min 0 min 0,0 UV-I 0 W/m 0,0 km/h (0 Bft)
21.01.2014 04:44 1,4 C 0,6 C 97 % 1010,2 hPa 0,0 l/m 0 min 0 min 0,0 UV-I 0 W/m 0,0 km/h (0 Bft)
21.01.2014 04:46 1,4 C 0,6 C 97 % 1010,2 hPa 0,0 l/m 0 min 0 min 0,0 UV-I 0 W/m 0,0 km/h (0 Bft)
21.01.2014 04:48 1,4 C 0,6 C 97 % 1010,2 hPa 0,0 l/m 0 min 0 min 0,0 UV-I 0 W/m 0,0 km/h (0 Bft)
21.01.2014 04:50 1,4 C 0,6 C 97 % 1010,2 hPa 0,0 l/m 0 min 0 min 0,0 UV-I 0 W/m 2,6 km/h (1 Bft)
21.01.2014 04:52 1,4 C 0,6 C 97 % 1010,2 hPa 0,0 l/m 0 min 0 min 0,0 UV-I 0 W/m 0,0 km/h (0 Bft)
21.01.2014 04:54 1,4 C 0,6 C 97 % 1010,2 hPa 0,0 l/m 0 min 0 min 0,0 UV-I 0 W/m 0,0 km/h (0 Bft)
21.01.2014 04:56 1,4 C 0,6 C 97 % 1010,2 hPa 0,0 l/m 0 min 0 min 0,0 UV-I 0 W/m 0,0 km/h (0 Bft)
21.01.2014 04:58 1,4 C 0,6 C 97 % 1010,2 hPa 0,0 l/m 0 min 0 min 0,0 UV-I 0 W/m 0,0 km/h (0 Bft)
21.01.2014 05:00 1,4 C 0,6 C 97 % 1010,2 hPa 0,0 l/m 0 min 0 min 0,0 UV-I 0 W/m 0,0 km/h (0 Bft)
21.01.2014 05:02 1,4 C 0,6 C 97 % 1010,3 hPa 0,0 l/m 0 min 0 min 0,0 UV-I 0 W/m 0,0 km/h (0 Bft)
21.01.2014 05:04 1,4 C 0,6 C 97 % 1010,3 hPa 0,0 l/m 0 min 0 min 0,0 UV-I 0 W/m 0,0 km/h (0 Bft)
21.01.2014 05:06 1,4 C 0,6 C 97 % 1010,3 hPa 0,0 l/m 0 min 0 min 0,0 UV-I 0 W/m 0,0 km/h (0 Bft)
21.01.2014 05:08 1,4 C 0,6 C 97 % 1010,3 hPa 0,0 l/m 0 min 0 min 0,0 UV-I 0 W/m 0,0 km/h (0 Bft)
21.01.2014 05:10 1,4 C 0,6 C 97 % 1010,3 hPa 0,0 l/m 0 min 0 min 0,0 UV-I 0 W/m 0,0 km/h (0 Bft)
21.01.2014 05:12 1,4 C 0,6 C 97 % 1010,3 hPa 0,0 l/m 0 min 0 min 0,0 UV-I 0 W/m 0,0 km/h (0 Bft)
21.01.2014 05:14 1,4 C 0,6 C 97 % 1010,3 hPa 0,0 l/m 0 min 0 min 0,0 UV-I 0 W/m 0,0 km/h (0 Bft)
21.01.2014 05:16 1,4 C 0,6 C 97 % 1010,3 hPa 0,0 l/m 0 min 0 min 0,0 UV-I 0 W/m 0,0 km/h (0 Bft)
21.01.2014 05:18 1,4 C 0,6 C 97 % 1010,3 hPa 0,0 l/m 0 min 0 min 0,0 UV-I 0 W/m 0,0 km/h (0 Bft)
21.01.2014 05:20 1,4 C 0,6 C 97 % 1010,3 hPa 0,0 l/m 0 min 0 min 0,0 UV-I 0 W/m 0,0 km/h (0 Bft)
21.01.2014 05:22 1,4 C 0,6 C 97 % 1010,3 hPa 0,0 l/m 0 min 0 min 0,0 UV-I 0 W/m 0,0 km/h (0 Bft)
21.01.2014 05:24 1,4 C 0,6 C 97 % 1010,3 hPa 0,0 l/m 0 min 0 min 0,0 UV-I 0 W/m 0,0 km/h (0 Bft)
21.01.2014 05:26 1,4 C 0,6 C 97 % 1010,2 hPa 0,0 l/m 0 min 0 min 0,0 UV-I 0 W/m 0,0 km/h (0 Bft)
21.01.2014 05:28 1,4 C 0,6 C 97 % 1010,3 hPa 0,0 l/m 0 min 0 min 0,0 UV-I 0 W/m 0,0 km/h (0 Bft)
21.01.2014 05:30 1,4 C 0,6 C 97 % 1010,3 hPa 0,0 l/m 0 min 0 min 0,0 UV-I 0 W/m 2,6 km/h (1 Bft)
21.01.2014 05:32 1,4 C 0,6 C 97 % 1010,2 hPa 0,0 l/m 0 min 0 min 0,0 UV-I 0 W/m 0,0 km/h (0 Bft)
21.01.2014 05:34 1,3 C 0,6 C 97 % 1010,3 hPa 0,0 l/m 0 min 0 min 0,0 UV-I 0 W/m 0,0 km/h (0 Bft)
21.01.2014 05:36 1,3 C 0,6 C 97 % 1010,3 hPa 0,0 l/m 0 min 0 min 0,0 UV-I 0 W/m 0,0 km/h (0 Bft)
21.01.2014 05:38 1,3 C 0,6 C 97 % 1010,3 hPa 0,0 l/m 0 min 0 min 0,0 UV-I 0 W/m 0,0 km/h (0 Bft)
21.01.2014 05:40 1,3 C 0,6 C 97 % 1010,3 hPa 0,0 l/m 0 min 0 min 0,0 UV-I 0 W/m 0,0 km/h (0 Bft)
21.01.2014 05:42 1,3 C 0,6 C 97 % 1010,3 hPa 0,0 l/m 0 min 0 min 0,0 UV-I 0 W/m 0,0 km/h (0 Bft)
21.01.2014 05:44 1,4 C 0,6 C 97 % 1010,3 hPa 0,0 l/m 0 min 0 min 0,0 UV-I 0 W/m 0,0 km/h (0 Bft)
21.01.2014 05:46 1,3 C 0,6 C 97 % 1010,3 hPa 0,0 l/m 0 min 0 min 0,0 UV-I 0 W/m 0,0 km/h (0 Bft)
21.01.2014 05:48 1,4 C 0,6 C 97 % 1010,3 hPa 0,0 l/m 0 min 0 min 0,0 UV-I 0 W/m 0,0 km/h (0 Bft)
21.01.2014 05:50 1,3 C 0,6 C 97 % 1010,3 hPa 0,0 l/m 0 min 0 min 0,0 UV-I 0 W/m 0,0 km/h (0 Bft)
21.01.2014 05:52 1,4 C 0,6 C 97 % 1010,3 hPa 0,0 l/m 0 min 0 min 0,0 UV-I 0 W/m 0,0 km/h (0 Bft)
21.01.2014 05:54 1,4 C 0,6 C 97 % 1010,4 hPa 0,0 l/m 0 min 0 min 0,0 UV-I 0 W/m 0,0 km/h (0 Bft)
21.01.2014 05:56 1,3 C 0,6 C 97 % 1010,4 hPa 0,0 l/m 0 min 0 min 0,0 UV-I 0 W/m 0,0 km/h (0 Bft)
21.01.2014 05:58 1,3 C 0,6 C 97 % 1010,3 hPa 0,0 l/m 0 min 0 min 0,0 UV-I 0 W/m 0,0 km/h (0 Bft)
21.01.2014 06:00 1,3 C 0,6 C 97 % 1010,3 hPa 0,0 l/m 0 min 0 min 0,0 UV-I 0 W/m 0,0 km/h (0 Bft)
21.01.2014 06:02 1,3 C 0,6 C 97 % 1010,3 hPa 0,0 l/m 0 min 0 min 0,0 UV-I 0 W/m 0,0 km/h (0 Bft)
21.01.2014 06:04 1,3 C 0,6 C 97 % 1010,3 hPa 0,0 l/m 0 min 0 min 0,0 UV-I 0 W/m 0,0 km/h (0 Bft)
21.01.2014 06:06 1,4 C 0,6 C 97 % 1010,3 hPa 0,0 l/m 0 min 0 min 0,0 UV-I 0 W/m 0,0 km/h (0 Bft)
21.01.2014 06:08 1,4 C 0,6 C 97 % 1010,3 hPa 0,0 l/m 0 min 0 min 0,0 UV-I 0 W/m 0,0 km/h (0 Bft)
21.01.2014 06:10 1,3 C 0,6 C 97 % 1010,3 hPa 0,0 l/m 0 min 0 min 0,0 UV-I 0 W/m 0,0 km/h (0 Bft)
21.01.2014 06:12 1,4 C 0,6 C 97 % 1010,4 hPa 0,0 l/m 0 min 0 min 0,0 UV-I 0 W/m 0,0 km/h (0 Bft)
21.01.2014 06:14 1,4 C 0,6 C 97 % 1010,3 hPa 0,0 l/m 0 min 0 min 0,0 UV-I 0 W/m 0,0 km/h (0 Bft)
21.01.2014 06:16 1,4 C 0,6 C 97 % 1010,3 hPa 0,0 l/m 0 min 0 min 0,0 UV-I 0 W/m 0,0 km/h (0 Bft)
21.01.2014 06:18 1,4 C 0,6 C 97 % 1010,3 hPa 0,0 l/m 0 min 0 min 0,0 UV-I 0 W/m 0,0 km/h (0 Bft)
21.01.2014 06:20 1,3 C 0,6 C 97 % 1010,3 hPa 0,0 l/m 0 min 0 min 0,0 UV-I 0 W/m 0,0 km/h (0 Bft)
21.01.2014 06:22 1,4 C 0,6 C 97 % 1010,3 hPa 0,0 l/m 0 min 0 min 0,0 UV-I 0 W/m 0,0 km/h (0 Bft)
21.01.2014 06:24 1,4 C 0,6 C 97 % 1010,3 hPa 0,0 l/m 0 min 0 min 0,0 UV-I 0 W/m 0,0 km/h (0 Bft)
21.01.2014 06:26 1,4 C 0,6 C 97 % 1010,4 hPa 0,0 l/m 0 min 0 min 0,0 UV-I 0 W/m 0,0 km/h (0 Bft)
21.01.2014 06:28 1,4 C 0,6 C 97 % 1010,4 hPa 0,0 l/m 0 min 2 min 0,0 UV-I 0 W/m 0,0 km/h (0 Bft)
21.01.2014 06:30 1,4 C 0,6 C 97 % 1010,4 hPa 0,0 l/m 0 min 0 min 0,0 UV-I 0 W/m 0,0 km/h (0 Bft)
21.01.2014 06:32 1,4 C 0,6 C 97 % 1010,3 hPa 0,0 l/m 0 min 0 min 0,0 UV-I 0 W/m 0,0 km/h (0 Bft)
21.01.2014 06:34 1,4 C 0,6 C 97 % 1010,5 hPa 0,0 l/m 0 min 0 min 0,0 UV-I 0 W/m 0,0 km/h (0 Bft)
21.01.2014 06:36 1,4 C 0,6 C 97 % 1010,5 hPa 0,0 l/m 0 min 0 min 0,0 UV-I 0 W/m 0,0 km/h (0 Bft)
21.01.2014 06:38 1,4 C 0,6 C 97 % 1010,6 hPa 0,0 l/m 0 min 0 min 0,0 UV-I 0 W/m 0,0 km/h (0 Bft)
21.01.2014 06:40 1,4 C 0,6 C 97 % 1010,6 hPa 0,0 l/m 0 min 0 min 0,0 UV-I 0 W/m 0,0 km/h (0 Bft)
21.01.2014 06:42 1,4 C 0,6 C 97 % 1010,6 hPa 0,0 l/m 0 min 0 min 0,0 UV-I 0 W/m 0,0 km/h (0 Bft)
21.01.2014 06:44 1,4 C 0,6 C 97 % 1010,6 hPa 0,0 l/m 0 min 0 min 0,0 UV-I 0 W/m 0,0 km/h (0 Bft)
21.01.2014 06:46 1,4 C 0,6 C 97 % 1010,6 hPa 0,0 l/m 0 min 0 min 0,0 UV-I 0 W/m 0,0 km/h (0 Bft)
21.01.2014 06:48 1,4 C 0,6 C 97 % 1010,6 hPa 0,0 l/m 0 min 0 min 0,0 UV-I 0 W/m 0,0 km/h (0 Bft)
21.01.2014 06:50 1,4 C 0,6 C 97 % 1010,6 hPa 0,0 l/m 0 min 0 min 0,0 UV-I 0 W/m 0,0 km/h (0 Bft)
21.01.2014 06:52 1,4 C 0,6 C 97 % 1010,6 hPa 0,0 l/m 0 min 0 min 0,0 UV-I 0 W/m 0,0 km/h (0 Bft)
21.01.2014 06:54 1,4 C 0,6 C 97 % 1010,7 hPa 0,0 l/m 0 min 0 min 0,0 UV-I 0 W/m 0,0 km/h (0 Bft)
21.01.2014 06:56 1,4 C 0,6 C 97 % 1010,6 hPa 0,0 l/m 0 min 0 min 0,0 UV-I 0 W/m 0,0 km/h (0 Bft)
21.01.2014 06:58 1,4 C 0,6 C 97 % 1010,6 hPa 0,0 l/m 0 min 0 min 0,0 UV-I 0 W/m 0,0 km/h (0 Bft)
21.01.2014 07:00 1,4 C 0,6 C 97 % 1010,7 hPa 0,0 l/m 0 min 0 min 0,0 UV-I 0 W/m 0,0 km/h (0 Bft)
21.01.2014 07:02 1,4 C 0,6 C 97 % 1010,7 hPa 0,0 l/m 0 min 0 min 0,0 UV-I 0 W/m 0,0 km/h (0 Bft)
21.01.2014 07:04 1,4 C 0,6 C 97 % 1010,7 hPa 0,0 l/m 0 min 0 min 0,0 UV-I 0 W/m 0,0 km/h (0 Bft)
21.01.2014 07:06 1,4 C 0,6 C 97 % 1010,7 hPa 0,0 l/m 0 min 0 min 0,0 UV-I 0 W/m 0,0 km/h (0 Bft)
21.01.2014 07:08 1,4 C 0,6 C 97 % 1010,7 hPa 0,0 l/m 0 min 0 min 0,0 UV-I 0 W/m 0,0 km/h (0 Bft)
21.01.2014 07:10 1,4 C 0,6 C 97 % 1010,7 hPa 0,0 l/m 0 min 0 min 0,0 UV-I 0 W/m 0,0 km/h (0 Bft)
21.01.2014 07:12 1,5 C 0,6 C 97 % 1010,7 hPa 0,0 l/m 0 min 0 min 0,0 UV-I 0 W/m 0,0 km/h (0 Bft)
21.01.2014 07:14 1,5 C 0,6 C 97 % 1010,7 hPa 0,0 l/m 0 min 2 min 0,0 UV-I 0 W/m 0,0 km/h (0 Bft)
21.01.2014 07:16 1,5 C 0,6 C 97 % 1010,7 hPa 0,2 l/m 0 min 2 min 0,0 UV-I 0 W/m 0,0 km/h (0 Bft)
21.01.2014 07:18 1,5 C 0,6 C 97 % 1010,7 hPa 0,0 l/m 0 min 2 min 0,0 UV-I 0 W/m 0,0 km/h (0 Bft)
21.01.2014 07:20 1,5 C 0,6 C 97 % 1010,7 hPa 0,0 l/m 0 min 0 min 0,0 UV-I 0 W/m 0,0 km/h (0 Bft)
21.01.2014 07:22 1,5 C 0,6 C 97 % 1010,7 hPa 0,0 l/m 0 min 0 min 0,0 UV-I 0 W/m 0,0 km/h (0 Bft)
21.01.2014 07:24 1,5 C 0,6 C 97 % 1010,8 hPa 0,0 l/m 0 min 0 min 0,0 UV-I 0 W/m 0,0 km/h (0 Bft)
21.01.2014 07:26 1,5 C 0,6 C 97 % 1010,8 hPa 0,0 l/m 0 min 0 min 0,0 UV-I 0 W/m 0,0 km/h (0 Bft)
21.01.2014 07:28 1,5 C 0,6 C 97 % 1010,8 hPa 0,0 l/m 0 min 0 min 0,0 UV-I 0 W/m 0,0 km/h (0 Bft)
21.01.2014 07:30 1,5 C 1,1 C 97 % 1010,8 hPa 0,0 l/m 0 min 0 min 0,0 UV-I 0 W/m 0,0 km/h (0 Bft)
21.01.2014 07:32 1,5 C 0,6 C 97 % 1010,8 hPa 0,0 l/m 0 min 0 min 0,0 UV-I 0 W/m 0,0 km/h (0 Bft)
21.01.2014 07:34 1,6 C 1,1 C 97 % 1010,8 hPa 0,0 l/m 0 min 0 min 0,0 UV-I 0 W/m 0,0 km/h (0 Bft)
21.01.2014 07:36 1,6 C 1,1 C 97 % 1010,9 hPa 0,0 l/m 0 min 0 min 0,0 UV-I 0 W/m 0,0 km/h (0 Bft)
21.01.2014 07:38 1,6 C 1,1 C 97 % 1010,9 hPa 0,0 l/m 0 min 0 min 0,0 UV-I 0 W/m 0,0 km/h (0 Bft)
21.01.2014 07:40 1,6 C 1,1 C 97 % 1010,9 hPa 0,0 l/m 0 min 0 min 0,0 UV-I 0 W/m 0,0 km/h (0 Bft)
21.01.2014 07:42 1,6 C 1,1 C 97 % 1010,9 hPa 0,0 l/m 0 min 0 min 0,0 UV-I 0 W/m 0,0 km/h (0 Bft)
21.01.2014 07:44 1,6 C 1,1 C 97 % 1010,9 hPa 0,0 l/m 0 min 2 min 0,0 UV-I 0 W/m 0,0 km/h (0 Bft)
21.01.2014 07:46 1,6 C 1,1 C 97 % 1010,9 hPa 0,0 l/m 0 min 2 min 0,0 UV-I 0 W/m 0,0 km/h (0 Bft)
21.01.2014 07:48 1,6 C 1,1 C 97 % 1010,9 hPa 0,0 l/m 0 min 0 min 0,0 UV-I 0 W/m 0,0 km/h (0 Bft)
21.01.2014 07:50 1,6 C 1,1 C 97 % 1011,0 hPa 0,0 l/m 0 min 0 min 0,0 UV-I 0 W/m 0,0 km/h (0 Bft)
21.01.2014 07:52 1,6 C 1,1 C 97 % 1011,1 hPa 0,0 l/m 0 min 0 min 0,0 UV-I 0 W/m 0,0 km/h (0 Bft)
21.01.2014 07:54 1,6 C 1,1 C 97 % 1011,0 hPa 0,0 l/m 0 min 0 min 0,0 UV-I 0 W/m 0,0 km/h (0 Bft)
21.01.2014 07:56 1,6 C 1,1 C 97 % 1011,0 hPa 0,0 l/m 0 min 2 min 0,0 UV-I 0 W/m 0,0 km/h (0 Bft)
21.01.2014 07:58 1,6 C 1,1 C 97 % 1011,0 hPa 0,0 l/m 0 min 2 min 0,0 UV-I 0 W/m 0,0 km/h (0 Bft)
21.01.2014 08:00 1,7 C 1,1 C 97 % 1011,0 hPa 0,0 l/m 0 min 0 min 0,0 UV-I 0 W/m 0,0 km/h (0 Bft)
21.01.2014 08:02 1,7 C 1,1 C 97 % 1011,1 hPa 0,0 l/m 0 min 0 min 0,0 UV-I 0 W/m 0,0 km/h (0 Bft)
21.01.2014 08:04 1,7 C 1,1 C 97 % 1011,0 hPa 0,0 l/m 0 min 0 min 0,0 UV-I 0 W/m 0,0 km/h (0 Bft)
21.01.2014 08:06 1,7 C 1,1 C 97 % 1011,1 hPa 0,0 l/m 0 min 0 min 0,0 UV-I 0 W/m 0,0 km/h (0 Bft)
21.01.2014 08:08 1,7 C 1,1 C 97 % 1011,0 hPa 0,0 l/m 0 min 0 min 0,0 UV-I 0 W/m 0,0 km/h (0 Bft)
21.01.2014 08:10 1,7 C 1,1 C 97 % 1011,0 hPa 0,0 l/m 0 min 0 min 0,0 UV-I 0 W/m 0,0 km/h (0 Bft)
21.01.2014 08:12 1,7 C 1,1 C 97 % 1011,1 hPa 0,0 l/m 0 min 0 min 0,0 UV-I 0 W/m 0,0 km/h (0 Bft)
21.01.2014 08:14 1,7 C 1,1 C 97 % 1011,1 hPa 0,0 l/m 0 min 0 min 0,0 UV-I 0 W/m 0,0 km/h (0 Bft)
21.01.2014 08:16 1,7 C 1,1 C 97 % 1011,1 hPa 0,0 l/m 0 min 0 min 0,0 UV-I 0 W/m 0,0 km/h (0 Bft)
21.01.2014 08:18 1,7 C 1,1 C 97 % 1011,1 hPa 0,0 l/m 0 min 0 min 0,0 UV-I 0 W/m 0,0 km/h (0 Bft)
21.01.2014 08:20 1,7 C 1,1 C 97 % 1011,1 hPa 0,0 l/m 0 min 0 min 0,0 UV-I 0 W/m 0,0 km/h (0 Bft)
21.01.2014 08:22 1,7 C 1,1 C 97 % 1011,1 hPa 0,0 l/m 0 min 0 min 0,0 UV-I 0 W/m 0,0 km/h (0 Bft)
21.01.2014 08:24 1,7 C 1,1 C 97 % 1011,2 hPa 0,0 l/m 0 min 0 min 0,0 UV-I 0 W/m 0,0 km/h (0 Bft)
21.01.2014 08:26 1,7 C 1,1 C 97 % 1011,2 hPa 0,0 l/m 0 min 0 min 0,0 UV-I 0 W/m 0,0 km/h (0 Bft)
21.01.2014 08:28 1,7 C 1,1 C 97 % 1011,2 hPa 0,0 l/m 0 min 0 min 0,0 UV-I 0 W/m 0,0 km/h (0 Bft)
21.01.2014 08:30 1,7 C 1,1 C 97 % 1011,3 hPa 0,0 l/m 0 min 0 min 0,0 UV-I 0 W/m 0,0 km/h (0 Bft)
21.01.2014 08:32 1,7 C 1,1 C 97 % 1011,3 hPa 0,0 l/m 0 min 0 min 0,0 UV-I 0 W/m 0,0 km/h (0 Bft)
21.01.2014 08:34 1,8 C 1,1 C 97 % 1011,3 hPa 0,0 l/m 0 min 0 min 0,0 UV-I 0 W/m 0,0 km/h (0 Bft)
21.01.2014 08:36 1,8 C 1,1 C 97 % 1011,3 hPa 0,0 l/m 0 min 0 min 0,0 UV-I 0 W/m 0,0 km/h (0 Bft)
21.01.2014 08:38 1,8 C 1,1 C 97 % 1011,4 hPa 0,0 l/m 0 min 0 min 0,0 UV-I 0 W/m 0,0 km/h (0 Bft)
21.01.2014 08:40 1,8 C 1,1 C 97 % 1011,4 hPa 0,0 l/m 0 min 0 min 0,0 UV-I 0 W/m 0,0 km/h (0 Bft)
21.01.2014 08:42 1,8 C 1,1 C 97 % 1011,4 hPa 0,0 l/m 0 min 0 min 0,0 UV-I 0 W/m 0,0 km/h (0 Bft)
21.01.2014 08:44 1,8 C 1,1 C 97 % 1011,4 hPa 0,0 l/m 0 min 0 min 0,0 UV-I 0 W/m 0,0 km/h (0 Bft)
21.01.2014 08:46 1,8 C 1,1 C 97 % 1011,4 hPa 0,0 l/m 0 min 0 min 0,0 UV-I 0 W/m 0,0 km/h (0 Bft)
21.01.2014 08:48 1,8 C 1,1 C 97 % 1011,4 hPa 0,0 l/m 0 min 0 min 0,0 UV-I 0 W/m 0,0 km/h (0 Bft)
21.01.2014 08:50 1,8 C 1,1 C 97 % 1011,5 hPa 0,0 l/m 0 min 0 min 0,0 UV-I 0 W/m 0,0 km/h (0 Bft)
21.01.2014 08:52 1,8 C 1,1 C 97 % 1011,5 hPa 0,0 l/m 0 min 0 min 0,0 UV-I 0 W/m 0,0 km/h (0 Bft)
21.01.2014 08:54 1,8 C 1,1 C 97 % 1011,5 hPa 0,0 l/m 0 min 0 min 0,0 UV-I 0 W/m 0,0 km/h (0 Bft)
21.01.2014 08:56 1,8 C 1,1 C 97 % 1011,5 hPa 0,0 l/m 0 min 0 min 0,0 UV-I 0 W/m 0,0 km/h (0 Bft)
21.01.2014 08:58 1,8 C 1,1 C 97 % 1011,5 hPa 0,0 l/m 0 min 0 min 0,0 UV-I 0 W/m 0,0 km/h (0 Bft)
21.01.2014 09:00 1,8 C 1,1 C 97 % 1011,6 hPa 0,0 l/m 0 min 0 min 0,0 UV-I 0 W/m 0,0 km/h (0 Bft)
21.01.2014 09:02 1,8 C 1,1 C 97 % 1011,5 hPa 0,0 l/m 0 min 0 min 0,0 UV-I 0 W/m 0,0 km/h (0 Bft)
21.01.2014 09:04 1,8 C 1,1 C 97 % 1011,7 hPa 0,0 l/m 0 min 0 min 0,0 UV-I 0 W/m 0,0 km/h (0 Bft)
21.01.2014 09:06 1,8 C 1,1 C 97 % 1011,7 hPa 0,0 l/m 0 min 0 min 0,0 UV-I 0 W/m 0,0 km/h (0 Bft)
21.01.2014 09:08 1,8 C 1,1 C 97 % 1011,7 hPa 0,0 l/m 0 min 0 min 0,0 UV-I 5 W/m 0,0 km/h (0 Bft)
21.01.2014 09:10 1,8 C 1,1 C 97 % 1011,8 hPa 0,0 l/m 0 min 0 min 0,0 UV-I 5 W/m 0,0 km/h (0 Bft)
21.01.2014 09:12 1,8 C 1,1 C 97 % 1011,8 hPa 0,0 l/m 0 min 0 min 0,0 UV-I 5 W/m 0,0 km/h (0 Bft)
21.01.2014 09:14 1,8 C 1,1 C 97 % 1011,9 hPa 0,0 l/m 0 min 0 min 0,0 UV-I 5 W/m 0,0 km/h (0 Bft)
21.01.2014 09:16 1,8 C 1,1 C 97 % 1011,9 hPa 0,0 l/m 0 min 0 min 0,0 UV-I 5 W/m 0,0 km/h (0 Bft)
21.01.2014 09:18 1,8 C 1,1 C 97 % 1011,9 hPa 0,0 l/m 0 min 0 min 0,0 UV-I 5 W/m 0,0 km/h (0 Bft)
21.01.2014 09:20 1,8 C 1,1 C 97 % 1011,9 hPa 0,0 l/m 0 min 0 min 0,0 UV-I 5 W/m 0,0 km/h (0 Bft)
21.01.2014 09:22 1,8 C 1,1 C 97 % 1011,9 hPa 0,0 l/m 0 min 0 min 0,0 UV-I 5 W/m 0,0 km/h (0 Bft)
21.01.2014 09:24 1,9 C 1,1 C 97 % 1011,9 hPa 0,0 l/m 0 min 0 min 0,0 UV-I 7 W/m 0,0 km/h (0 Bft)
21.01.2014 09:26 1,9 C 1,1 C 97 % 1012,0 hPa 0,0 l/m 0 min 0 min 0,0 UV-I 7 W/m 0,0 km/h (0 Bft)
21.01.2014 09:28 1,9 C 1,1 C 97 % 1012,0 hPa 0,0 l/m 0 min 0 min 0,0 UV-I 7 W/m 0,0 km/h (0 Bft)
21.01.2014 09:30 1,9 C 1,1 C 97 % 1011,9 hPa 0,0 l/m 0 min 0 min 0,0 UV-I 7 W/m 0,0 km/h (0 Bft)
21.01.2014 09:32 1,9 C 1,1 C 97 % 1011,9 hPa 0,0 l/m 0 min 0 min 0,0 UV-I 9 W/m 0,0 km/h (0 Bft)
21.01.2014 09:34 1,9 C 1,1 C 97 % 1011,9 hPa 0,0 l/m 0 min 0 min 0,0 UV-I 9 W/m 0,0 km/h (0 Bft)
21.01.2014 09:36 1,9 C 1,1 C 97 % 1011,9 hPa 0,0 l/m 0 min 0 min 0,0 UV-I 9 W/m 0,0 km/h (0 Bft)
21.01.2014 09:38 1,9 C 1,1 C 97 % 1011,9 hPa 0,0 l/m 0 min 0 min 0,0 UV-I 11 W/m 0,0 km/h (0 Bft)
21.01.2014 09:40 1,9 C 1,1 C 97 % 1011,9 hPa 0,0 l/m 0 min 0 min 0,0 UV-I 11 W/m 0,0 km/h (0 Bft)
21.01.2014 09:42 1,9 C 1,1 C 98 % 1011,9 hPa 0,0 l/m 0 min 0 min 0,0 UV-I 11 W/m 0,0 km/h (0 Bft)
21.01.2014 09:44 1,9 C 1,1 C 98 % 1011,9 hPa 0,0 l/m 0 min 0 min 0,0 UV-I 12 W/m 0,0 km/h (0 Bft)
21.01.2014 09:46 1,9 C 1,1 C 98 % 1011,9 hPa 0,0 l/m 0 min 0 min 0,0 UV-I 12 W/m 0,0 km/h (0 Bft)
21.01.2014 09:48 1,9 C 1,1 C 98 % 1011,9 hPa 0,0 l/m 0 min 0 min 0,0 UV-I 14 W/m 0,0 km/h (0 Bft)
21.01.2014 09:50 1,9 C 1,1 C 98 % 1011,9 hPa 0,0 l/m 0 min 0 min 0,0 UV-I 14 W/m 0,0 km/h (0 Bft)
21.01.2014 09:52 1,9 C 1,1 C 98 % 1011,9 hPa 0,0 l/m 0 min 0 min 0,0 UV-I 16 W/m 0,0 km/h (0 Bft)
21.01.2014 09:54 2,0 C 1,1 C 98 % 1012,0 hPa 0,0 l/m 0 min 0 min 0,0 UV-I 16 W/m 0,0 km/h (0 Bft)
21.01.2014 09:56 2,0 C 1,7 C 98 % 1012,0 hPa 0,0 l/m 0 min 0 min 0,0 UV-I 16 W/m 0,0 km/h (0 Bft)
21.01.2014 09:58 2,0 C 1,1 C 98 % 1012,0 hPa 0,0 l/m 0 min 0 min 0,0 UV-I 16 W/m 0,0 km/h (0 Bft)
21.01.2014 10:00 2,0 C 1,1 C 98 % 1012,0 hPa 0,0 l/m 0 min 0 min 0,0 UV-I 16 W/m 0,0 km/h (0 Bft)
21.01.2014 10:02 2,0 C 1,7 C 98 % 1011,9 hPa 0,0 l/m 0 min 0 min 0,0 UV-I 16 W/m 0,0 km/h (0 Bft)
21.01.2014 10:04 2,0 C 1,7 C 98 % 1011,9 hPa 0,0 l/m 0 min 0 min 0,0 UV-I 14 W/m 0,0 km/h (0 Bft)
21.01.2014 10:06 2,0 C 1,7 C 98 % 1011,9 hPa 0,0 l/m 0 min 0 min 0,0 UV-I 12 W/m 0,0 km/h (0 Bft)
21.01.2014 10:08 2,0 C 1,7 C 98 % 1012,0 hPa 0,0 l/m 0 min 0 min 0,0 UV-I 12 W/m 0,0 km/h (0 Bft)
21.01.2014 10:10 2,0 C 1,7 C 98 % 1012,0 hPa 0,0 l/m 0 min 0 min 0,0 UV-I 12 W/m 0,0 km/h (0 Bft)
21.01.2014 10:12 2,1 C 1,7 C 98 % 1012,0 hPa 0,0 l/m 0 min 0 min 0,0 UV-I 11 W/m 0,0 km/h (0 Bft)
21.01.2014 10:14 2,1 C 1,7 C 98 % 1012,0 hPa 0,0 l/m 0 min 0 min 0,0 UV-I 12 W/m 0,0 km/h (0 Bft)
21.01.2014 10:16 2,1 C 1,7 C 98 % 1012,0 hPa 0,0 l/m 0 min 0 min 0,0 UV-I 14 W/m 0,0 km/h (0 Bft)
21.01.2014 10:18 2,1 C 1,7 C 98 % 1012,0 hPa 0,0 l/m 0 min 0 min 0,0 UV-I 18 W/m 0,0 km/h (0 Bft)
21.01.2014 10:20 2,1 C 1,7 C 98 % 1012,0 hPa 0,0 l/m 0 min 0 min 0,0 UV-I 19 W/m 0,0 km/h (0 Bft)
21.01.2014 10:22 2,1 C 1,7 C 98 % 1011,9 hPa 0,0 l/m 0 min 0 min 0,0 UV-I 21 W/m 0,0 km/h (0 Bft)
21.01.2014 10:24 2,1 C 1,7 C 98 % 1012,0 hPa 0,0 l/m 0 min 0 min 0,0 UV-I 23 W/m 0,0 km/h (0 Bft)
21.01.2014 10:26 2,1 C 1,7 C 98 % 1012,0 hPa 0,0 l/m 0 min 0 min 0,0 UV-I 25 W/m 0,0 km/h (0 Bft)
21.01.2014 10:28 2,1 C 1,7 C 98 % 1012,0 hPa 0,0 l/m 0 min 0 min 0,0 UV-I 26 W/m 0,0 km/h (0 Bft)
21.01.2014 10:30 2,1 C 1,7 C 97 % 1012,0 hPa 0,0 l/m 0 min 0 min 0,0 UV-I 33 W/m 0,0 km/h (0 Bft)
21.01.2014 10:32 2,1 C 1,7 C 97 % 1012,0 hPa 0,0 l/m 0 min 0 min 0,0 UV-I 35 W/m 0,0 km/h (0 Bft)
21.01.2014 10:34 2,1 C 1,7 C 97 % 1011,9 hPa 0,0 l/m 0 min 0 min 0,0 UV-I 39 W/m 0,0 km/h (0 Bft)
21.01.2014 10:36 2,1 C 1,7 C 97 % 1011,9 hPa 0,0 l/m 0 min 0 min 0,0 UV-I 42 W/m 0,0 km/h (0 Bft)
21.01.2014 10:38 2,2 C 1,7 C 97 % 1012,0 hPa 0,0 l/m 0 min 0 min 0,0 UV-I 33 W/m 0,0 km/h (0 Bft)
21.01.2014 10:40 2,2 C 1,7 C 97 % 1012,0 hPa 0,0 l/m 0 min 0 min 0,0 UV-I 35 W/m 0,0 km/h (0 Bft)
21.01.2014 10:42 2,2 C 1,7 C 97 % 1012,0 hPa 0,0 l/m 0 min 0 min 0,0 UV-I 35 W/m 0,0 km/h (0 Bft)
21.01.2014 10:44 2,2 C 1,7 C 97 % 1012,0 hPa 0,0 l/m 0 min 0 min 0,0 UV-I 37 W/m 0,0 km/h (0 Bft)
21.01.2014 10:46 2,2 C 2,2 C 97 % 1012,0 hPa 0,0 l/m 0 min 0 min 0,0 UV-I 37 W/m 0,0 km/h (0 Bft)
21.01.2014 10:48 2,2 C 1,7 C 97 % 1012,0 hPa 0,0 l/m 0 min 0 min 0,0 UV-I 35 W/m 0,0 km/h (0 Bft)
21.01.2014 10:50 2,2 C 2,2 C 97 % 1012,1 hPa 0,0 l/m 0 min 0 min 0,0 UV-I 37 W/m 0,0 km/h (0 Bft)
21.01.2014 10:52 2,2 C 2,2 C 97 % 1012,0 hPa 0,0 l/m 0 min 0 min 0,0 UV-I 40 W/m 0,0 km/h (0 Bft)
21.01.2014 10:54 2,2 C 2,2 C 97 % 1012,0 hPa 0,0 l/m 0 min 0 min 0,0 UV-I 40 W/m 0,0 km/h (0 Bft)
21.01.2014 10:56 2,3 C 2,2 C 97 % 1011,9 hPa 0,0 l/m 0 min 0 min 0,0 UV-I 49 W/m 0,0 km/h (0 Bft)
21.01.2014 10:58 2,3 C 2,2 C 98 % 1011,9 hPa 0,0 l/m 0 min 0 min 0,0 UV-I 56 W/m 0,0 km/h (0 Bft)
21.01.2014 11:00 2,3 C 2,2 C 98 % 1012,0 hPa 0,0 l/m 0 min 0 min 0,0 UV-I 67 W/m 0,0 km/h (0 Bft)
21.01.2014 11:02 2,3 C 2,2 C 98 % 1012,0 hPa 0,0 l/m 0 min 0 min 0,0 UV-I 72 W/m 0,0 km/h (0 Bft)
21.01.2014 11:04 2,4 C 2,2 C 98 % 1011,9 hPa 0,0 l/m 0 min 0 min 0,0 UV-I 81 W/m 0,0 km/h (0 Bft)
21.01.2014 11:06 2,5 C 2,8 C 98 % 1011,9 hPa 0,0 l/m 0 min 0 min 0,0 UV-I 91 W/m 0,0 km/h (0 Bft)
21.01.2014 11:08 2,6 C 2,8 C 98 % 1011,9 hPa 0,0 l/m 0 min 0 min 0,0 UV-I 95 W/m 2,6 km/h (1 Bft)
21.01.2014 11:10 2,6 C 2,8 C 98 % 1011,9 hPa 0,0 l/m 0 min 0 min 0,0 UV-I 93 W/m 0,0 km/h (0 Bft)
21.01.2014 11:12 2,6 C 2,8 C 98 % 1011,9 hPa 0,0 l/m 0 min 0 min 0,0 UV-I 81 W/m 0,0 km/h (0 Bft)
21.01.2014 11:14 2,7 C 2,8 C 98 % 1011,9 hPa 0,0 l/m 0 min 0 min 0,0 UV-I 70 W/m 2,6 km/h (1 Bft)
21.01.2014 11:16 2,8 C 2,8 C 98 % 1011,9 hPa 0,0 l/m 0 min 0 min 0,0 UV-I 62 W/m 0,0 km/h (0 Bft)
21.01.2014 11:18 2,7 C 2,8 C 98 % 1012,0 hPa 0,0 l/m 0 min 0 min 0,0 UV-I 54 W/m 0,0 km/h (0 Bft)
21.01.2014 11:20 2,7 C 2,8 C 98 % 1011,9 hPa 0,0 l/m 0 min 0 min 0,0 UV-I 54 W/m 0,0 km/h (0 Bft)
21.01.2014 11:22 2,7 C 2,2 C 98 % 1011,9 hPa 0,0 l/m 0 min 0 min 0,0 UV-I 51 W/m 0,0 km/h (0 Bft)
21.01.2014 11:24 2,7 C 2,2 C 98 % 1011,9 hPa 0,0 l/m 0 min 0 min 0,0 UV-I 47 W/m 0,0 km/h (0 Bft)
21.01.2014 11:26 2,7 C 2,2 C 98 % 1011,9 hPa 0,0 l/m 0 min 0 min 0,0 UV-I 49 W/m 0,0 km/h (0 Bft)
21.01.2014 11:28 2,8 C 2,2 C 98 % 1011,9 hPa 0,0 l/m 0 min 0 min 0,0 UV-I 51 W/m 0,0 km/h (0 Bft)
21.01.2014 11:30 2,8 C 2,2 C 98 % 1011,9 hPa 0,0 l/m 0 min 0 min 0,0 UV-I 51 W/m 0,0 km/h (0 Bft)
21.01.2014 11:32 2,8 C 2,8 C 97 % 1011,9 hPa 0,0 l/m 0 min 0 min 0,0 UV-I 53 W/m 0,0 km/h (0 Bft)
21.01.2014 11:34 2,8 C 2,8 C 97 % 1011,9 hPa 0,0 l/m 0 min 0 min 0,0 UV-I 58 W/m 0,0 km/h (0 Bft)
21.01.2014 11:36 2,9 C 2,8 C 97 % 1011,9 hPa 0,0 l/m 0 min 0 min 0,0 UV-I 69 W/m 0,0 km/h (0 Bft)
21.01.2014 11:38 2,9 C 2,8 C 98 % 1012,0 hPa 0,0 l/m 0 min 0 min 0,0 UV-I 77 W/m 2,6 km/h (1 Bft)
21.01.2014 11:40 2,9 C 2,8 C 98 % 1012,0 hPa 0,0 l/m 0 min 0 min 0,0 UV-I 76 W/m 0,0 km/h (0 Bft)
21.01.2014 11:42 3,0 C 2,8 C 97 % 1012,0 hPa 0,0 l/m 0 min 0 min 0,0 UV-I 70 W/m 7,7 km/h (2 Bft)
21.01.2014 11:44 3,1 C 2,8 C 97 % 1012,0 hPa 0,0 l/m 0 min 0 min 0,0 UV-I 65 W/m 0,0 km/h (0 Bft)
21.01.2014 11:46 3,1 C 2,8 C 97 % 1012,0 hPa 0,0 l/m 0 min 0 min 0,0 UV-I 56 W/m 0,0 km/h (0 Bft)
21.01.2014 11:48 3,1 C 2,8 C 97 % 1012,0 hPa 0,0 l/m 0 min 0 min 0,0 UV-I 53 W/m 0,0 km/h (0 Bft)
21.01.2014 11:50 3,1 C 2,8 C 97 % 1012,0 hPa 0,0 l/m 0 min 0 min 0,0 UV-I 54 W/m 0,0 km/h (0 Bft)
21.01.2014 11:52 3,1 C 2,8 C 97 % 1012,0 hPa 0,0 l/m 0 min 0 min 0,0 UV-I 70 W/m 0,0 km/h (0 Bft)
21.01.2014 11:54 3,2 C 2,8 C 97 % 1012,0 hPa 0,0 l/m 0 min 0 min 0,0 UV-I 81 W/m 0,0 km/h (0 Bft)
21.01.2014 11:56 3,2 C 2,8 C 97 % 1012,0 hPa 0,0 l/m 0 min 0 min 0,0 UV-I 81 W/m 0,0 km/h (0 Bft)
21.01.2014 11:58 3,1 C 2,8 C 97 % 1012,0 hPa 0,0 l/m 0 min 0 min 0,0 UV-I 77 W/m 0,0 km/h (0 Bft)
21.01.2014 12:00 3,1 C 2,8 C 97 % 1011,9 hPa 0,0 l/m 0 min 0 min 0,0 UV-I 74 W/m 0,0 km/h (0 Bft)
21.01.2014 12:02 3,2 C 2,8 C 97 % 1011,9 hPa 0,0 l/m 0 min 0 min 0,0 UV-I 72 W/m 0,0 km/h (0 Bft)
21.01.2014 12:04 3,2 C 2,8 C 96 % 1011,8 hPa 0,0 l/m 0 min 0 min 0,0 UV-I 67 W/m 0,0 km/h (0 Bft)
21.01.2014 12:06 3,2 C 2,8 C 96 % 1011,8 hPa 0,0 l/m 0 min 0 min 0,0 UV-I 60 W/m 0,0 km/h (0 Bft)
21.01.2014 12:08 3,2 C 2,8 C 96 % 1011,8 hPa 0,0 l/m 0 min 0 min 0,0 UV-I 62 W/m 0,0 km/h (0 Bft)
21.01.2014 12:10 3,2 C 2,8 C 96 % 1011,8 hPa 0,0 l/m 0 min 0 min 0,0 UV-I 54 W/m 0,0 km/h (0 Bft)
21.01.2014 12:12 3,2 C 2,8 C 96 % 1011,8 hPa 0,0 l/m 0 min 0 min 0,0 UV-I 53 W/m 0,0 km/h (0 Bft)
21.01.2014 12:14 3,2 C 2,8 C 96 % 1011,7 hPa 0,0 l/m 0 min 0 min 0,0 UV-I 54 W/m 0,0 km/h (0 Bft)
21.01.2014 12:16 3,2 C 2,8 C 96 % 1011,7 hPa 0,0 l/m 0 min 0 min 0,0 UV-I 53 W/m 0,0 km/h (0 Bft)
21.01.2014 12:18 3,3 C 2,8 C 96 % 1011,7 hPa 0,0 l/m 0 min 0 min 0,0 UV-I 49 W/m 0,0 km/h (0 Bft)
21.01.2014 12:20 3,3 C 2,8 C 95 % 1011,6 hPa 0,0 l/m 0 min 0 min 0,0 UV-I 47 W/m 0,0 km/h (0 Bft)
21.01.2014 12:22 3,3 C 2,8 C 95 % 1011,6 hPa 0,0 l/m 0 min 0 min 0,0 UV-I 53 W/m 0,0 km/h (0 Bft)
21.01.2014 12:24 3,3 C 2,8 C 95 % 1011,6 hPa 0,0 l/m 0 min 0 min 0,0 UV-I 56 W/m 0,0 km/h (0 Bft)
21.01.2014 12:26 3,3 C 2,8 C 95 % 1011,6 hPa 0,0 l/m 0 min 0 min 0,0 UV-I 60 W/m 0,0 km/h (0 Bft)
21.01.2014 12:28 3,3 C 2,8 C 95 % 1011,6 hPa 0,0 l/m 0 min 0 min 0,0 UV-I 56 W/m 0,0 km/h (0 Bft)
21.01.2014 12:30 3,3 C 2,8 C 95 % 1011,6 hPa 0,0 l/m 0 min 0 min 0,0 UV-I 53 W/m 0,0 km/h (0 Bft)
21.01.2014 12:32 3,4 C 2,8 C 95 % 1011,6 hPa 0,0 l/m 0 min 0 min 0,0 UV-I 49 W/m 0,0 km/h (0 Bft)
21.01.2014 12:34 3,4 C 2,8 C 95 % 1011,6 hPa 0,0 l/m 0 min 0 min 0,0 UV-I 47 W/m 0,0 km/h (0 Bft)
21.01.2014 12:36 3,4 C 2,8 C 95 % 1011,6 hPa 0,0 l/m 0 min 0 min 0,0 UV-I 47 W/m 0,0 km/h (0 Bft)
21.01.2014 12:38 3,4 C 2,8 C 95 % 1011,6 hPa 0,0 l/m 0 min 0 min 0,0 UV-I 47 W/m 0,0 km/h (0 Bft)
21.01.2014 12:40 3,4 C 2,8 C 95 % 1011,6 hPa 0,0 l/m 0 min 0 min 0,0 UV-I 49 W/m 0,0 km/h (0 Bft)
21.01.2014 12:42 3,4 C 2,8 C 95 % 1011,6 hPa 0,0 l/m 0 min 0 min 0,0 UV-I 47 W/m 0,0 km/h (0 Bft)
21.01.2014 12:44 3,4 C 2,8 C 95 % 1011,7 hPa 0,0 l/m 0 min 0 min 0,0 UV-I 44 W/m 0,0 km/h (0 Bft)
21.01.2014 12:46 3,4 C 2,8 C 95 % 1011,7 hPa 0,0 l/m 0 min 0 min 0,0 UV-I 39 W/m 0,0 km/h (0 Bft)
21.01.2014 12:48 3,4 C 2,8 C 94 % 1011,7 hPa 0,0 l/m 0 min 0 min 0,0 UV-I 39 W/m 5,1 km/h (1 Bft)
21.01.2014 12:50 3,4 C 2,8 C 94 % 1011,6 hPa 0,0 l/m 0 min 0 min 0,0 UV-I 40 W/m 0,0 km/h (0 Bft)
21.01.2014 12:52 3,4 C 2,8 C 94 % 1011,7 hPa 0,0 l/m 0 min 0 min 0,0 UV-I 44 W/m 0,0 km/h (0 Bft)
21.01.2014 12:54 3,4 C 2,8 C 94 % 1011,7 hPa 0,0 l/m 0 min 0 min 0,0 UV-I 42 W/m 2,6 km/h (1 Bft)
21.01.2014 12:56 3,4 C 2,8 C 94 % 1011,7 hPa 0,0 l/m 0 min 0 min 0,0 UV-I 46 W/m 0,0 km/h (0 Bft)
21.01.2014 12:58 3,4 C 2,8 C 94 % 1011,6 hPa 0,0 l/m 0 min 0 min 0,0 UV-I 53 W/m 0,0 km/h (0 Bft)
21.01.2014 13:00 3,4 C 2,8 C 94 % 1011,6 hPa 0,0 l/m 0 min 0 min 0,0 UV-I 54 W/m 0,0 km/h (0 Bft)
21.01.2014 13:02 3,4 C 2,8 C 94 % 1011,6 hPa 0,0 l/m 0 min 0 min 0,0 UV-I 44 W/m 0,0 km/h (0 Bft)
21.01.2014 13:04 3,4 C 2,8 C 94 % 1011,6 hPa 0,0 l/m 0 min 0 min 0,0 UV-I 37 W/m 0,0 km/h (0 Bft)
21.01.2014 13:06 3,5 C 2,8 C 94 % 1011,6 hPa 0,0 l/m 0 min 0 min 0,0 UV-I 35 W/m 0,0 km/h (0 Bft)
21.01.2014 13:08 3,5 C 2,8 C 94 % 1011,6 hPa 0,0 l/m 0 min 0 min 0,0 UV-I 33 W/m 0,0 km/h (0 Bft)
21.01.2014 13:10 3,5 C 2,8 C 94 % 1011,7 hPa 0,0 l/m 0 min 0 min 0,0 UV-I 35 W/m 2,6 km/h (1 Bft)
21.01.2014 13:12 3,5 C 2,8 C 94 % 1011,7 hPa 0,0 l/m 0 min 0 min 0,0 UV-I 35 W/m 0,0 km/h (0 Bft)
21.01.2014 13:14 3,5 C 2,8 C 94 % 1011,7 hPa 0,0 l/m 0 min 0 min 0,0 UV-I 33 W/m 0,0 km/h (0 Bft)
21.01.2014 13:16 3,6 C 2,8 C 94 % 1011,6 hPa 0,0 l/m 0 min 0 min 0,0 UV-I 32 W/m 2,6 km/h (1 Bft)
21.01.2014 13:18 3,6 C 2,8 C 94 % 1011,7 hPa 0,0 l/m 0 min 0 min 0,0 UV-I 30 W/m 0,0 km/h (0 Bft)
21.01.2014 13:20 3,6 C 2,8 C 94 % 1011,7 hPa 0,0 l/m 0 min 0 min 0,0 UV-I 32 W/m 0,0 km/h (0 Bft)
21.01.2014 13:22 3,6 C 2,8 C 94 % 1011,7 hPa 0,0 l/m 0 min 0 min 0,0 UV-I 32 W/m 0,0 km/h (0 Bft)
21.01.2014 13:24 3,6 C 2,8 C 94 % 1011,6 hPa 0,0 l/m 0 min 0 min 0,0 UV-I 33 W/m 0,0 km/h (0 Bft)
21.01.2014 13:26 3,6 C 2,8 C 94 % 1011,7 hPa 0,0 l/m 0 min 0 min 0,0 UV-I 40 W/m 0,0 km/h (0 Bft)
21.01.2014 13:28 3,6 C 2,8 C 94 % 1011,7 hPa 0,0 l/m 0 min 0 min 0,0 UV-I 46 W/m 0,0 km/h (0 Bft)
21.01.2014 13:30 3,6 C 2,8 C 94 % 1011,7 hPa 0,0 l/m 0 min 0 min 0,0 UV-I 49 W/m 0,0 km/h (0 Bft)
21.01.2014 13:32 3,6 C 2,8 C 94 % 1011,7 hPa 0,0 l/m 0 min 0 min 0,0 UV-I 54 W/m 0,0 km/h (0 Bft)
21.01.2014 13:34 3,6 C 3,3 C 94 % 1011,6 hPa 0,0 l/m 0 min 0 min 0,0 UV-I 53 W/m 0,0 km/h (0 Bft)
21.01.2014 13:36 3,6 C 3,3 C 94 % 1011,7 hPa 0,0 l/m 0 min 0 min 0,0 UV-I 49 W/m 0,0 km/h (0 Bft)
21.01.2014 13:38 3,6 C 3,3 C 94 % 1011,7 hPa 0,0 l/m 0 min 0 min 0,0 UV-I 46 W/m 0,0 km/h (0 Bft)
21.01.2014 13:40 3,6 C 3,3 C 94 % 1011,6 hPa 0,0 l/m 0 min 0 min 0,0 UV-I 44 W/m 0,0 km/h (0 Bft)
21.01.2014 13:42 3,6 C 3,3 C 94 % 1011,7 hPa 0,0 l/m 0 min 0 min 0,0 UV-I 46 W/m 0,0 km/h (0 Bft)
21.01.2014 13:44 3,6 C 3,3 C 94 % 1011,6 hPa 0,0 l/m 0 min 0 min 0,0 UV-I 47 W/m 0,0 km/h (0 Bft)
21.01.2014 13:46 3,6 C 3,3 C 94 % 1011,6 hPa 0,0 l/m 0 min 0 min 0,0 UV-I 49 W/m 0,0 km/h (0 Bft)
21.01.2014 13:48 3,6 C 3,3 C 94 % 1011,6 hPa 0,0 l/m 0 min 0 min 0,0 UV-I 49 W/m 0,0 km/h (0 Bft)
21.01.2014 13:50 3,6 C 3,3 C 94 % 1011,6 hPa 0,0 l/m 0 min 0 min 0,0 UV-I 49 W/m 0,0 km/h (0 Bft)
21.01.2014 13:52 3,6 C 3,3 C 94 % 1011,5 hPa 0,0 l/m 0 min 0 min 0,0 UV-I 44 W/m 0,0 km/h (0 Bft)
21.01.2014 13:54 3,7 C 3,3 C 94 % 1011,6 hPa 0,0 l/m 0 min 0 min 0,0 UV-I 40 W/m 0,0 km/h (0 Bft)
21.01.2014 13:56 3,7 C 3,3 C 94 % 1011,6 hPa 0,0 l/m 0 min 0 min 0,0 UV-I 40 W/m 0,0 km/h (0 Bft)
21.01.2014 13:58 3,7 C 3,3 C 94 % 1011,6 hPa 0,0 l/m 0 min 0 min 0,0 UV-I 40 W/m 0,0 km/h (0 Bft)
21.01.2014 14:00 3,7 C 3,3 C 94 % 1011,6 hPa 0,0 l/m 0 min 0 min 0,0 UV-I 42 W/m 5,1 km/h (1 Bft)
21.01.2014 14:02 3,7 C 3,3 C 94 % 1011,6 hPa 0,0 l/m 0 min 0 min 0,0 UV-I 47 W/m 0,0 km/h (0 Bft)
21.01.2014 14:04 3,7 C 3,3 C 94 % 1011,6 hPa 0,0 l/m 0 min 0 min 0,0 UV-I 47 W/m 0,0 km/h (0 Bft)
21.01.2014 14:06 3,7 C 3,3 C 94 % 1011,6 hPa 0,0 l/m 0 min 0 min 0,0 UV-I 49 W/m 0,0 km/h (0 Bft)
21.01.2014 14:08 3,7 C 3,3 C 94 % 1011,6 hPa 0,0 l/m 0 min 0 min 0,0 UV-I 44 W/m 0,0 km/h (0 Bft)
21.01.2014 14:10 3,7 C 3,3 C 94 % 1011,6 hPa 0,0 l/m 0 min 0 min 0,0 UV-I 39 W/m 0,0 km/h (0 Bft)
21.01.2014 14:12 3,7 C 3,3 C 94 % 1011,6 hPa 0,0 l/m 0 min 0 min 0,0 UV-I 37 W/m 0,0 km/h (0 Bft)
21.01.2014 14:14 3,8 C 3,3 C 94 % 1011,7 hPa 0,0 l/m 0 min 0 min 0,0 UV-I 37 W/m 0,0 km/h (0 Bft)
21.01.2014 14:16 3,8 C 3,3 C 94 % 1011,7 hPa 0,0 l/m 0 min 0 min 0,0 UV-I 35 W/m 0,0 km/h (0 Bft)
21.01.2014 14:18 3,8 C 3,3 C 94 % 1011,6 hPa 0,0 l/m 0 min 0 min 0,0 UV-I 35 W/m 0,0 km/h (0 Bft)
21.01.2014 14:20 3,8 C 3,3 C 94 % 1011,6 hPa 0,0 l/m 0 min 0 min 0,0 UV-I 35 W/m 0,0 km/h (0 Bft)
21.01.2014 14:22 3,8 C 3,3 C 94 % 1011,5 hPa 0,0 l/m 0 min 0 min 0,0 UV-I 39 W/m 0,0 km/h (0 Bft)
21.01.2014 14:24 3,8 C 3,3 C 94 % 1011,6 hPa 0,0 l/m 0 min 0 min 0,0 UV-I 39 W/m 0,0 km/h (0 Bft)
21.01.2014 14:26 3,8 C 3,3 C 94 % 1011,6 hPa 0,0 l/m 0 min 0 min 0,0 UV-I 35 W/m 0,0 km/h (0 Bft)
21.01.2014 14:28 3,8 C 3,3 C 94 % 1011,6 hPa 0,0 l/m 0 min 0 min 0,0 UV-I 33 W/m 0,0 km/h (0 Bft)
21.01.2014 14:30 3,8 C 3,3 C 94 % 1011,6 hPa 0,0 l/m 0 min 0 min 0,0 UV-I 33 W/m 0,0 km/h (0 Bft)
21.01.2014 14:32 3,8 C 3,3 C 94 % 1011,6 hPa 0,0 l/m 0 min 0 min 0,0 UV-I 35 W/m 0,0 km/h (0 Bft)
21.01.2014 14:34 3,8 C 3,3 C 94 % 1011,6 hPa 0,0 l/m 0 min 0 min 0,0 UV-I 33 W/m 0,0 km/h (0 Bft)
21.01.2014 14:36 3,9 C 3,3 C 94 % 1011,6 hPa 0,0 l/m 0 min 0 min 0,0 UV-I 28 W/m 2,6 km/h (1 Bft)
21.01.2014 14:38 3,9 C 3,3 C 94 % 1011,6 hPa 0,0 l/m 0 min 0 min 0,0 UV-I 28 W/m 0,0 km/h (0 Bft)
21.01.2014 14:40 3,9 C 3,3 C 94 % 1011,6 hPa 0,0 l/m 0 min 0 min 0,0 UV-I 30 W/m 0,0 km/h (0 Bft)
21.01.2014 14:42 3,9 C 3,3 C 94 % 1011,6 hPa 0,0 l/m 0 min 0 min 0,0 UV-I 30 W/m 0,0 km/h (0 Bft)
21.01.2014 14:44 3,9 C 3,3 C 94 % 1011,6 hPa 0,0 l/m 0 min 0 min 0,0 UV-I 28 W/m 0,0 km/h (0 Bft)
21.01.2014 14:46 3,9 C 3,3 C 94 % 1011,6 hPa 0,0 l/m 0 min 0 min 0,0 UV-I 28 W/m 0,0 km/h (0 Bft)
21.01.2014 14:48 3,9 C 3,3 C 94 % 1011,6 hPa 0,0 l/m 0 min 0 min 0,0 UV-I 28 W/m 0,0 km/h (0 Bft)
21.01.2014 14:50 3,9 C 3,3 C 94 % 1011,6 hPa 0,0 l/m 0 min 0 min 0,0 UV-I 28 W/m 0,0 km/h (0 Bft)
21.01.2014 14:52 3,9 C 3,3 C 94 % 1011,6 hPa 0,0 l/m 0 min 2 min 0,0 UV-I 28 W/m 0,0 km/h (0 Bft)
21.01.2014 14:54 3,9 C 3,3 C 94 % 1011,6 hPa 0,0 l/m 0 min 0 min 0,0 UV-I 28 W/m 0,0 km/h (0 Bft)
21.01.2014 14:56 3,9 C 3,3 C 94 % 1011,6 hPa 0,0 l/m 0 min 0 min 0,0 UV-I 30 W/m 0,0 km/h (0 Bft)
21.01.2014 14:58 3,9 C 3,3 C 94 % 1011,6 hPa 0,0 l/m 0 min 0 min 0,0 UV-I 28 W/m 0,0 km/h (0 Bft)
21.01.2014 15:00 3,9 C 3,3 C 94 % 1011,7 hPa 0,0 l/m 0 min 0 min 0,0 UV-I 28 W/m 0,0 km/h (0 Bft)
21.01.2014 15:02 3,9 C 3,3 C 94 % 1011,6 hPa 0,0 l/m 0 min 0 min 0,0 UV-I 26 W/m 0,0 km/h (0 Bft)
21.01.2014 15:04 3,9 C 3,3 C 94 % 1011,6 hPa 0,0 l/m 0 min 0 min 0,0 UV-I 25 W/m 0,0 km/h (0 Bft)
21.01.2014 15:06 4,0 C 3,3 C 94 % 1011,6 hPa 0,0 l/m 0 min 0 min 0,0 UV-I 23 W/m 0,0 km/h (0 Bft)
21.01.2014 15:08 4,0 C 3,3 C 94 % 1011,6 hPa 0,0 l/m 0 min 0 min 0,0 UV-I 21 W/m 0,0 km/h (0 Bft)
21.01.2014 15:10 4,0 C 3,3 C 94 % 1011,6 hPa 0,0 l/m 0 min 0 min 0,0 UV-I 19 W/m 0,0 km/h (0 Bft)
21.01.2014 15:12 4,0 C 3,3 C 94 % 1011,6 hPa 0,0 l/m 0 min 0 min 0,0 UV-I 19 W/m 0,0 km/h (0 Bft)
21.01.2014 15:14 4,0 C 3,3 C 94 % 1011,7 hPa 0,0 l/m 0 min 0 min 0,0 UV-I 19 W/m 0,0 km/h (0 Bft)
21.01.2014 15:16 4,0 C 3,3 C 94 % 1011,6 hPa 0,0 l/m 0 min 0 min 0,0 UV-I 19 W/m 0,0 km/h (0 Bft)
21.01.2014 15:18 4,0 C 3,3 C 94 % 1011,7 hPa 0,0 l/m 0 min 0 min 0,0 UV-I 23 W/m 0,0 km/h (0 Bft)
21.01.2014 15:20 4,0 C 3,3 C 94 % 1011,7 hPa 0,0 l/m 0 min 0 min 0,0 UV-I 23 W/m 0,0 km/h (0 Bft)
21.01.2014 15:22 4,0 C 3,3 C 94 % 1011,6 hPa 0,0 l/m 0 min 0 min 0,0 UV-I 23 W/m 0,0 km/h (0 Bft)
21.01.2014 15:24 4,0 C 3,3 C 94 % 1011,6 hPa 0,0 l/m 0 min 0 min 0,0 UV-I 21 W/m 0,0 km/h (0 Bft)
21.01.2014 15:26 4,1 C 3,3 C 94 % 1011,6 hPa 0,0 l/m 0 min 0 min 0,0 UV-I 21 W/m 0,0 km/h (0 Bft)
21.01.2014 15:28 4,0 C 3,3 C 94 % 1011,6 hPa 0,0 l/m 0 min 0 min 0,0 UV-I 19 W/m 0,0 km/h (0 Bft)
21.01.2014 15:30 4,0 C 3,3 C 94 % 1011,7 hPa 0,0 l/m 0 min 0 min 0,0 UV-I 21 W/m 0,0 km/h (0 Bft)
21.01.2014 15:32 4,1 C 3,3 C 94 % 1011,8 hPa 0,0 l/m 0 min 0 min 0,0 UV-I 21 W/m 0,0 km/h (0 Bft)
21.01.2014 15:34 4,1 C 3,3 C 94 % 1011,7 hPa 0,0 l/m 0 min 0 min 0,0 UV-I 21 W/m 0,0 km/h (0 Bft)
21.01.2014 15:36 4,1 C 3,3 C 94 % 1011,7 hPa 0,0 l/m 0 min 0 min 0,0 UV-I 19 W/m 0,0 km/h (0 Bft)
21.01.2014 15:38 4,1 C 3,3 C 93 % 1011,7 hPa 0,0 l/m 0 min 0 min 0,0 UV-I 18 W/m 0,0 km/h (0 Bft)
21.01.2014 15:40 4,1 C 3,3 C 93 % 1011,7 hPa 0,0 l/m 0 min 0 min 0,0 UV-I 16 W/m 0,0 km/h (0 Bft)
21.01.2014 15:42 4,1 C 3,3 C 93 % 1011,6 hPa 0,0 l/m 0 min 0 min 0,0 UV-I 16 W/m 0,0 km/h (0 Bft)
21.01.2014 15:44 4,1 C 3,3 C 93 % 1011,7 hPa 0,0 l/m 0 min 0 min 0,0 UV-I 14 W/m 0,0 km/h (0 Bft)
21.01.2014 15:46 4,1 C 3,3 C 93 % 1011,7 hPa 0,0 l/m 0 min 0 min 0,0 UV-I 14 W/m 0,0 km/h (0 Bft)
21.01.2014 15:48 4,1 C 3,3 C 93 % 1011,8 hPa 0,0 l/m 0 min 2 min 0,0 UV-I 14 W/m 0,0 km/h (0 Bft)
21.01.2014 15:50 4,1 C 3,3 C 93 % 1011,8 hPa 0,0 l/m 0 min 0 min 0,0 UV-I 12 W/m 0,0 km/h (0 Bft)
21.01.2014 15:52 4,1 C 3,3 C 93 % 1011,8 hPa 0,0 l/m 0 min 2 min 0,0 UV-I 12 W/m 0,0 km/h (0 Bft)
21.01.2014 15:54 4,1 C 2,8 C 93 % 1011,7 hPa 0,0 l/m 0 min 2 min 0,0 UV-I 12 W/m 0,0 km/h (0 Bft)
21.01.2014 15:56 4,1 C 2,8 C 93 % 1011,8 hPa 0,0 l/m 0 min 2 min 0,0 UV-I 12 W/m 0,0 km/h (0 Bft)
21.01.2014 15:58 4,1 C 2,8 C 93 % 1011,8 hPa 0,0 l/m 0 min 2 min 0,0 UV-I 11 W/m 0,0 km/h (0 Bft)
21.01.2014 16:00 4,1 C 2,8 C 93 % 1011,8 hPa 0,0 l/m 0 min 2 min 0,0 UV-I 11 W/m 0,0 km/h (0 Bft)
21.01.2014 16:02 4,1 C 2,8 C 93 % 1011,8 hPa 0,0 l/m 0 min 2 min 0,0 UV-I 9 W/m 0,0 km/h (0 Bft)
21.01.2014 16:04 4,1 C 2,8 C 93 % 1011,8 hPa 0,0 l/m 0 min 2 min 0,0 UV-I 9 W/m 0,0 km/h (0 Bft)
21.01.2014 16:06 4,1 C 2,8 C 93 % 1011,9 hPa 0,0 l/m 0 min 2 min 0,0 UV-I 9 W/m 0,0 km/h (0 Bft)
21.01.2014 16:08 4,1 C 2,8 C 93 % 1011,9 hPa 0,0 l/m 0 min 2 min 0,0 UV-I 7 W/m 0,0 km/h (0 Bft)
21.01.2014 16:10 4,1 C 2,8 C 93 % 1011,9 hPa 0,0 l/m 0 min 2 min 0,0 UV-I 7 W/m 0,0 km/h (0 Bft)
21.01.2014 16:12 4,1 C 2,8 C 93 % 1011,9 hPa 0,0 l/m 0 min 2 min 0,0 UV-I 7 W/m 0,0 km/h (0 Bft)
21.01.2014 16:14 4,1 C 2,8 C 93 % 1011,9 hPa 0,0 l/m 0 min 2 min 0,0 UV-I 5 W/m 0,0 km/h (0 Bft)
21.01.2014 16:16 4,1 C 2,8 C 93 % 1012,0 hPa 0,0 l/m 0 min 2 min 0,0 UV-I 5 W/m 0,0 km/h (0 Bft)
21.01.2014 16:18 4,1 C 2,8 C 93 % 1012,0 hPa 0,0 l/m 0 min 2 min 0,0 UV-I 5 W/m 0,0 km/h (0 Bft)
21.01.2014 16:20 4,1 C 2,8 C 93 % 1012,0 hPa 0,2 l/m 0 min 2 min 0,0 UV-I 5 W/m 0,0 km/h (0 Bft)
21.01.2014 16:22 4,1 C 2,8 C 93 % 1012,1 hPa 0,0 l/m 0 min 2 min 0,0 UV-I 5 W/m 0,0 km/h (0 Bft)
21.01.2014 16:24 4,1 C 2,8 C 93 % 1012,1 hPa 0,0 l/m 0 min 0 min 0,0 UV-I 5 W/m 0,0 km/h (0 Bft)
21.01.2014 16:26 4,1 C 2,8 C 93 % 1012,0 hPa 0,0 l/m 0 min 0 min 0,0 UV-I 5 W/m 0,0 km/h (0 Bft)
21.01.2014 16:28 4,1 C 2,8 C 93 % 1012,1 hPa 0,0 l/m 0 min 2 min 0,0 UV-I 0 W/m 0,0 km/h (0 Bft)
21.01.2014 16:30 4,1 C 2,8 C 93 % 1012,1 hPa 0,0 l/m 0 min 2 min 0,0 UV-I 0 W/m 0,0 km/h (0 Bft)
21.01.2014 16:32 4,1 C 2,8 C 93 % 1012,0 hPa 0,0 l/m 0 min 2 min 0,0 UV-I 0 W/m 0,0 km/h (0 Bft)
21.01.2014 16:34 4,1 C 2,8 C 93 % 1012,1 hPa 0,0 l/m 0 min 2 min 0,0 UV-I 0 W/m 0,0 km/h (0 Bft)
21.01.2014 16:36 4,1 C 2,8 C 93 % 1012,1 hPa 0,0 l/m 0 min 2 min 0,0 UV-I 0 W/m 0,0 km/h (0 Bft)
21.01.2014 16:38 4,1 C 2,8 C 93 % 1012,1 hPa 0,0 l/m 0 min 2 min 0,0 UV-I 0 W/m 0,0 km/h (0 Bft)
21.01.2014 16:40 4,1 C 2,8 C 93 % 1012,1 hPa 0,0 l/m 0 min 2 min 0,0 UV-I 0 W/m 0,0 km/h (0 Bft)
21.01.2014 16:42 4,1 C 2,8 C 93 % 1012,1 hPa 0,0 l/m 0 min 2 min 0,0 UV-I 0 W/m 0,0 km/h (0 Bft)
21.01.2014 16:44 4,1 C 2,8 C 93 % 1012,1 hPa 0,0 l/m 0 min 2 min 0,0 UV-I 0 W/m 0,0 km/h (0 Bft)
21.01.2014 16:46 4,1 C 2,8 C 93 % 1012,1 hPa 0,0 l/m 0 min 2 min 0,0 UV-I 0 W/m 0,0 km/h (0 Bft)
21.01.2014 16:48 4,1 C 2,8 C 93 % 1012,0 hPa 0,0 l/m 0 min 0 min 0,0 UV-I 0 W/m 0,0 km/h (0 Bft)
21.01.2014 16:50 4,1 C 2,8 C 93 % 1012,1 hPa 0,0 l/m 0 min 2 min 0,0 UV-I 0 W/m 0,0 km/h (0 Bft)
21.01.2014 16:52 4,1 C 2,8 C 94 % 1012,1 hPa 0,0 l/m 0 min 0 min 0,0 UV-I 0 W/m 0,0 km/h (0 Bft)
21.01.2014 16:54 4,1 C 2,8 C 94 % 1012,1 hPa 0,0 l/m 0 min 0 min 0,0 UV-I 0 W/m 0,0 km/h (0 Bft)
21.01.2014 16:56 4,1 C 2,8 C 94 % 1012,1 hPa 0,0 l/m 0 min 0 min 0,0 UV-I 0 W/m 0,0 km/h (0 Bft)
21.01.2014 16:58 4,0 C 2,8 C 94 % 1012,1 hPa 0,0 l/m 0 min 0 min 0,0 UV-I 0 W/m 0,0 km/h (0 Bft)
21.01.2014 17:00 4,0 C 2,8 C 94 % 1012,1 hPa 0,0 l/m 0 min 0 min 0,0 UV-I 0 W/m 0,0 km/h (0 Bft)
21.01.2014 17:02 4,0 C 2,8 C 94 % 1012,1 hPa 0,0 l/m 0 min 0 min 0,0 UV-I 0 W/m 0,0 km/h (0 Bft)
21.01.2014 17:04 4,0 C 2,8 C 94 % 1012,1 hPa 0,0 l/m 0 min 0 min 0,0 UV-I 0 W/m 0,0 km/h (0 Bft)
21.01.2014 17:06 4,0 C 2,8 C 94 % 1012,1 hPa 0,0 l/m 0 min 0 min 0,0 UV-I 0 W/m 0,0 km/h (0 Bft)
21.01.2014 17:08 4,0 C 2,8 C 94 % 1012,1 hPa 0,0 l/m 0 min 0 min 0,0 UV-I 0 W/m 0,0 km/h (0 Bft)
21.01.2014 17:10 4,0 C 2,8 C 94 % 1012,1 hPa 0,0 l/m 0 min 0 min 0,0 UV-I 0 W/m 0,0 km/h (0 Bft)
21.01.2014 17:12 4,0 C 2,8 C 94 % 1012,1 hPa 0,0 l/m 0 min 0 min 0,0 UV-I 0 W/m 0,0 km/h (0 Bft)
21.01.2014 17:14 4,0 C 2,8 C 94 % 1012,1 hPa 0,0 l/m 0 min 0 min 0,0 UV-I 0 W/m 0,0 km/h (0 Bft)
21.01.2014 17:16 4,0 C 2,8 C 94 % 1012,1 hPa 0,0 l/m 0 min 0 min 0,0 UV-I 0 W/m 0,0 km/h (0 Bft)
21.01.2014 17:18 4,0 C 2,8 C 94 % 1012,1 hPa 0,0 l/m 0 min 0 min 0,0 UV-I 0 W/m 0,0 km/h (0 Bft)
21.01.2014 17:20 4,0 C 2,8 C 94 % 1012,2 hPa 0,0 l/m 0 min 0 min 0,0 UV-I 0 W/m 0,0 km/h (0 Bft)
21.01.2014 17:22 4,0 C 2,8 C 94 % 1012,2 hPa 0,0 l/m 0 min 0 min 0,0 UV-I 0 W/m 0,0 km/h (0 Bft)
21.01.2014 17:24 4,0 C 2,8 C 94 % 1012,2 hPa 0,0 l/m 0 min 0 min 0,0 UV-I 0 W/m 0,0 km/h (0 Bft)
21.01.2014 17:26 4,0 C 2,8 C 94 % 1012,2 hPa 0,0 l/m 0 min 0 min 0,0 UV-I 0 W/m 0,0 km/h (0 Bft)
21.01.2014 17:28 4,0 C 2,8 C 94 % 1012,2 hPa 0,0 l/m 0 min 0 min 0,0 UV-I 0 W/m 0,0 km/h (0 Bft)
21.01.2014 17:30 4,0 C 2,8 C 94 % 1012,2 hPa 0,0 l/m 0 min 0 min 0,0 UV-I 0 W/m 0,0 km/h (0 Bft)
21.01.2014 17:32 4,0 C 2,8 C 94 % 1012,2 hPa 0,0 l/m 0 min 0 min 0,0 UV-I 0 W/m 0,0 km/h (0 Bft)
21.01.2014 17:34 3,9 C 2,8 C 94 % 1012,2 hPa 0,0 l/m 0 min 0 min 0,0 UV-I 0 W/m 0,0 km/h (0 Bft)
21.01.2014 17:36 4,0 C 2,8 C 94 % 1012,1 hPa 0,0 l/m 0 min 0 min 0,0 UV-I 0 W/m 0,0 km/h (0 Bft)
21.01.2014 17:38 3,9 C 2,8 C 94 % 1012,2 hPa 0,0 l/m 0 min 0 min 0,0 UV-I 0 W/m 0,0 km/h (0 Bft)
21.01.2014 17:40 3,9 C 2,8 C 94 % 1012,2 hPa 0,0 l/m 0 min 0 min 0,0 UV-I 0 W/m 0,0 km/h (0 Bft)
21.01.2014 17:42 4,0 C 2,8 C 94 % 1012,1 hPa 0,0 l/m 0 min 0 min 0,0 UV-I 0 W/m 0,0 km/h (0 Bft)
21.01.2014 17:44 4,0 C 2,8 C 94 % 1012,1 hPa 0,0 l/m 0 min 0 min 0,0 UV-I 0 W/m 0,0 km/h (0 Bft)
21.01.2014 17:46 3,9 C 2,8 C 94 % 1012,2 hPa 0,0 l/m 0 min 0 min 0,0 UV-I 0 W/m 0,0 km/h (0 Bft)
21.01.2014 17:48 4,0 C 2,8 C 94 % 1012,1 hPa 0,0 l/m 0 min 0 min 0,0 UV-I 0 W/m 0,0 km/h (0 Bft)
21.01.2014 17:50 4,0 C 2,8 C 94 % 1012,2 hPa 0,0 l/m 0 min 0 min 0,0 UV-I 0 W/m 0,0 km/h (0 Bft)
21.01.2014 17:52 3,9 C 2,8 C 94 % 1012,2 hPa 0,0 l/m 0 min 0 min 0,0 UV-I 0 W/m 0,0 km/h (0 Bft)
21.01.2014 17:54 4,0 C 2,8 C 94 % 1012,2 hPa 0,0 l/m 0 min 0 min 0,0 UV-I 0 W/m 0,0 km/h (0 Bft)
21.01.2014 17:56 4,0 C 2,8 C 94 % 1012,2 hPa 0,0 l/m 0 min 0 min 0,0 UV-I 0 W/m 0,0 km/h (0 Bft)
21.01.2014 17:58 3,9 C 2,8 C 94 % 1012,2 hPa 0,0 l/m 0 min 0 min 0,0 UV-I 0 W/m 0,0 km/h (0 Bft)
21.01.2014 18:00 4,0 C 2,8 C 94 % 1012,1 hPa 0,0 l/m 0 min 0 min 0,0 UV-I 0 W/m 0,0 km/h (0 Bft)
21.01.2014 18:02 4,0 C 2,8 C 94 % 1012,1 hPa 0,0 l/m 0 min 0 min 0,0 UV-I 0 W/m 0,0 km/h (0 Bft)
21.01.2014 18:04 4,0 C 2,8 C 94 % 1012,1 hPa 0,0 l/m 0 min 0 min 0,0 UV-I 0 W/m 0,0 km/h (0 Bft)
21.01.2014 18:06 4,0 C 2,8 C 94 % 1012,0 hPa 0,0 l/m 0 min 0 min 0,0 UV-I 0 W/m 0,0 km/h (0 Bft)
21.01.2014 18:08 4,0 C 2,8 C 94 % 1012,0 hPa 0,0 l/m 0 min 0 min 0,0 UV-I 0 W/m 0,0 km/h (0 Bft)
21.01.2014 18:10 4,0 C 2,8 C 94 % 1012,0 hPa 0,0 l/m 0 min 0 min 0,0 UV-I 0 W/m 0,0 km/h (0 Bft)
21.01.2014 18:12 4,0 C 2,8 C 94 % 1012,0 hPa 0,0 l/m 0 min 0 min 0,0 UV-I 0 W/m 0,0 km/h (0 Bft)
21.01.2014 18:14 4,0 C 2,8 C 94 % 1012,1 hPa 0,0 l/m 0 min 0 min 0,0 UV-I 0 W/m 0,0 km/h (0 Bft)
21.01.2014 18:16 4,0 C 2,8 C 94 % 1012,0 hPa 0,0 l/m 0 min 0 min 0,0 UV-I 0 W/m 0,0 km/h (0 Bft)
21.01.2014 18:18 4,0 C 2,8 C 94 % 1012,0 hPa 0,0 l/m 0 min 0 min 0,0 UV-I 0 W/m 0,0 km/h (0 Bft)
21.01.2014 18:20 4,0 C 2,8 C 94 % 1012,1 hPa 0,0 l/m 0 min 0 min 0,0 UV-I 0 W/m 0,0 km/h (0 Bft)
21.01.2014 18:22 4,0 C 2,8 C 94 % 1012,0 hPa 0,0 l/m 0 min 0 min 0,0 UV-I 0 W/m 0,0 km/h (0 Bft)
21.01.2014 18:24 4,0 C 2,8 C 94 % 1012,0 hPa 0,0 l/m 0 min 0 min 0,0 UV-I 0 W/m 0,0 km/h (0 Bft)
21.01.2014 18:26 4,0 C 2,8 C 94 % 1012,0 hPa 0,0 l/m 0 min 0 min 0,0 UV-I 0 W/m 0,0 km/h (0 Bft)
21.01.2014 18:28 4,0 C 2,8 C 95 % 1012,0 hPa 0,0 l/m 0 min 0 min 0,0 UV-I 0 W/m 0,0 km/h (0 Bft)
21.01.2014 18:30 4,0 C 2,8 C 95 % 1012,0 hPa 0,0 l/m 0 min 0 min 0,0 UV-I 0 W/m 0,0 km/h (0 Bft)
21.01.2014 18:32 4,0 C 2,8 C 95 % 1012,0 hPa 0,0 l/m 0 min 0 min 0,0 UV-I 0 W/m 0,0 km/h (0 Bft)
21.01.2014 18:34 4,0 C 2,8 C 95 % 1012,0 hPa 0,0 l/m 0 min 0 min 0,0 UV-I 0 W/m 0,0 km/h (0 Bft)
21.01.2014 18:36 4,0 C 2,8 C 95 % 1012,0 hPa 0,0 l/m 0 min 0 min 0,0 UV-I 0 W/m 0,0 km/h (0 Bft)
21.01.2014 18:38 4,0 C 2,8 C 95 % 1012,0 hPa 0,0 l/m 0 min 0 min 0,0 UV-I 0 W/m 0,0 km/h (0 Bft)
21.01.2014 18:40 4,0 C 2,2 C 95 % 1012,0 hPa 0,0 l/m 0 min 0 min 0,0 UV-I 0 W/m 0,0 km/h (0 Bft)
21.01.2014 18:42 4,0 C 2,2 C 95 % 1011,9 hPa 0,0 l/m 0 min 0 min 0,0 UV-I 0 W/m 0,0 km/h (0 Bft)
21.01.2014 18:44 4,0 C 2,2 C 95 % 1011,8 hPa 0,0 l/m 0 min 0 min 0,0 UV-I 0 W/m 0,0 km/h (0 Bft)
21.01.2014 18:46 3,9 C 2,2 C 95 % 1012,0 hPa 0,0 l/m 0 min 0 min 0,0 UV-I 0 W/m 0,0 km/h (0 Bft)
21.01.2014 18:48 3,9 C 2,2 C 95 % 1011,9 hPa 0,0 l/m 0 min 0 min 0,0 UV-I 0 W/m 0,0 km/h (0 Bft)
21.01.2014 18:50 3,9 C 2,2 C 95 % 1011,9 hPa 0,0 l/m 0 min 0 min 0,0 UV-I 0 W/m 0,0 km/h (0 Bft)
21.01.2014 18:52 3,9 C 2,2 C 95 % 1011,9 hPa 0,0 l/m 0 min 0 min 0,0 UV-I 0 W/m 0,0 km/h (0 Bft)
21.01.2014 18:54 3,9 C 2,8 C 95 % 1012,0 hPa 0,0 l/m 0 min 0 min 0,0 UV-I 0 W/m 0,0 km/h (0 Bft)
21.01.2014 18:56 3,9 C 2,8 C 95 % 1012,0 hPa 0,0 l/m 0 min 0 min 0,0 UV-I 0 W/m 0,0 km/h (0 Bft)
21.01.2014 18:58 3,9 C 2,8 C 95 % 1012,0 hPa 0,0 l/m 0 min 0 min 0,0 UV-I 0 W/m 0,0 km/h (0 Bft)
21.01.2014 19:00 3,9 C 2,8 C 95 % 1011,9 hPa 0,0 l/m 0 min 0 min 0,0 UV-I 0 W/m 0,0 km/h (0 Bft)
21.01.2014 19:02 3,9 C 2,8 C 95 % 1011,9 hPa 0,0 l/m 0 min 0 min 0,0 UV-I 0 W/m 0,0 km/h (0 Bft)
21.01.2014 19:04 3,9 C 2,8 C 95 % 1011,9 hPa 0,0 l/m 0 min 0 min 0,0 UV-I 0 W/m 0,0 km/h (0 Bft)
21.01.2014 19:06 3,9 C 2,8 C 95 % 1011,9 hPa 0,0 l/m 0 min 0 min 0,0 UV-I 0 W/m 0,0 km/h (0 Bft)
21.01.2014 19:08 3,9 C 2,8 C 95 % 1012,0 hPa 0,0 l/m 0 min 0 min 0,0 UV-I 0 W/m 0,0 km/h (0 Bft)
21.01.2014 19:10 3,9 C 2,8 C 95 % 1012,0 hPa 0,0 l/m 0 min 0 min 0,0 UV-I 0 W/m 0,0 km/h (0 Bft)
21.01.2014 19:12 3,9 C 2,8 C 95 % 1012,0 hPa 0,0 l/m 0 min 0 min 0,0 UV-I 0 W/m 0,0 km/h (0 Bft)
21.01.2014 19:14 3,9 C 2,8 C 95 % 1012,0 hPa 0,0 l/m 0 min 0 min 0,0 UV-I 0 W/m 0,0 km/h (0 Bft)
21.01.2014 19:16 3,9 C 2,8 C 95 % 1012,0 hPa 0,0 l/m 0 min 0 min 0,0 UV-I 0 W/m 0,0 km/h (0 Bft)
21.01.2014 19:18 3,9 C 2,8 C 95 % 1012,0 hPa 0,0 l/m 0 min 0 min 0,0 UV-I 0 W/m 0,0 km/h (0 Bft)
21.01.2014 19:20 3,9 C 2,8 C 95 % 1012,0 hPa 0,0 l/m 0 min 0 min 0,0 UV-I 0 W/m 0,0 km/h (0 Bft)
21.01.2014 19:22 3,9 C 2,8 C 95 % 1012,1 hPa 0,0 l/m 0 min 0 min 0,0 UV-I 0 W/m 0,0 km/h (0 Bft)
21.01.2014 19:24 3,9 C 2,8 C 95 % 1012,1 hPa 0,0 l/m 0 min 0 min 0,0 UV-I 0 W/m 0,0 km/h (0 Bft)
21.01.2014 19:26 3,9 C 2,8 C 95 % 1012,1 hPa 0,0 l/m 0 min 0 min 0,0 UV-I 0 W/m 0,0 km/h (0 Bft)
21.01.2014 19:28 3,9 C 2,8 C 95 % 1012,1 hPa 0,0 l/m 0 min 0 min 0,0 UV-I 0 W/m 0,0 km/h (0 Bft)
21.01.2014 19:30 3,9 C 2,8 C 95 % 1012,1 hPa 0,0 l/m 0 min 0 min 0,0 UV-I 0 W/m 0,0 km/h (0 Bft)
21.01.2014 19:32 3,9 C 2,8 C 95 % 1012,1 hPa 0,0 l/m 0 min 0 min 0,0 UV-I 0 W/m 0,0 km/h (0 Bft)
21.01.2014 19:34 3,9 C 2,8 C 95 % 1012,1 hPa 0,0 l/m 0 min 0 min 0,0 UV-I 0 W/m 0,0 km/h (0 Bft)
21.01.2014 19:36 3,9 C 2,8 C 95 % 1012,2 hPa 0,0 l/m 0 min 0 min 0,0 UV-I 0 W/m 0,0 km/h (0 Bft)
21.01.2014 19:38 3,9 C 2,8 C 95 % 1012,1 hPa 0,0 l/m 0 min 0 min 0,0 UV-I 0 W/m 0,0 km/h (0 Bft)
21.01.2014 19:40 3,9 C 2,8 C 95 % 1012,1 hPa 0,0 l/m 0 min 0 min 0,0 UV-I 0 W/m 0,0 km/h (0 Bft)
21.01.2014 19:42 3,9 C 2,8 C 95 % 1012,2 hPa 0,0 l/m 0 min 0 min 0,0 UV-I 0 W/m 0,0 km/h (0 Bft)
21.01.2014 19:44 3,9 C 2,8 C 95 % 1012,2 hPa 0,0 l/m 0 min 0 min 0,0 UV-I 0 W/m 0,0 km/h (0 Bft)
21.01.2014 19:46 3,9 C 2,8 C 95 % 1012,1 hPa 0,0 l/m 0 min 0 min 0,0 UV-I 0 W/m 2,6 km/h (1 Bft)
21.01.2014 19:48 3,9 C 2,8 C 95 % 1012,1 hPa 0,0 l/m 0 min 0 min 0,0 UV-I 0 W/m 0,0 km/h (0 Bft)
21.01.2014 19:50 3,9 C 2,8 C 96 % 1012,1 hPa 0,0 l/m 0 min 0 min 0,0 UV-I 0 W/m 0,0 km/h (0 Bft)
21.01.2014 19:52 3,9 C 2,8 C 96 % 1012,2 hPa 0,0 l/m 0 min 0 min 0,0 UV-I 0 W/m 0,0 km/h (0 Bft)
21.01.2014 19:54 3,9 C 2,8 C 96 % 1012,1 hPa 0,0 l/m 0 min 0 min 0,0 UV-I 0 W/m 0,0 km/h (0 Bft)
21.01.2014 19:56 3,9 C 2,8 C 96 % 1012,1 hPa 0,0 l/m 0 min 0 min 0,0 UV-I 0 W/m 0,0 km/h (0 Bft)
21.01.2014 19:58 3,9 C 2,8 C 96 % 1012,1 hPa 0,0 l/m 0 min 0 min 0,0 UV-I 0 W/m 0,0 km/h (0 Bft)
21.01.2014 20:00 3,9 C 2,8 C 96 % 1012,1 hPa 0,0 l/m 0 min 0 min 0,0 UV-I 0 W/m 5,1 km/h (1 Bft)
21.01.2014 20:02 3,9 C 2,8 C 96 % 1012,1 hPa 0,0 l/m 0 min 0 min 0,0 UV-I 0 W/m 2,6 km/h (1 Bft)
21.01.2014 20:04 3,9 C 2,8 C 96 % 1012,0 hPa 0,0 l/m 0 min 0 min 0,0 UV-I 0 W/m 5,1 km/h (1 Bft)
21.01.2014 20:06 3,9 C 2,8 C 96 % 1012,1 hPa 0,0 l/m 0 min 0 min 0,0 UV-I 0 W/m 2,6 km/h (1 Bft)
21.01.2014 20:08 3,9 C 2,8 C 96 % 1012,1 hPa 0,0 l/m 0 min 0 min 0,0 UV-I 0 W/m 0,0 km/h (0 Bft)
21.01.2014 20:10 3,9 C 2,8 C 96 % 1012,1 hPa 0,0 l/m 0 min 0 min 0,0 UV-I 0 W/m 0,0 km/h (0 Bft)
21.01.2014 20:12 3,9 C 2,8 C 96 % 1012,1 hPa 0,0 l/m 0 min 0 min 0,0 UV-I 0 W/m 0,0 km/h (0 Bft)
21.01.2014 20:14 3,9 C 2,8 C 96 % 1012,1 hPa 0,0 l/m 0 min 0 min 0,0 UV-I 0 W/m 0,0 km/h (0 Bft)
21.01.2014 20:16 3,9 C 2,8 C 96 % 1012,1 hPa 0,0 l/m 0 min 0 min 0,0 UV-I 0 W/m 0,0 km/h (0 Bft)
21.01.2014 20:18 3,9 C 2,8 C 96 % 1012,1 hPa 0,0 l/m 0 min 0 min 0,0 UV-I 0 W/m 0,0 km/h (0 Bft)
21.01.2014 20:20 3,9 C 2,2 C 96 % 1012,1 hPa 0,0 l/m 0 min 0 min 0,0 UV-I 0 W/m 7,7 km/h (2 Bft)
21.01.2014 20:22 3,9 C 2,8 C 96 % 1012,1 hPa 0,0 l/m 0 min 0 min 0,0 UV-I 0 W/m 2,6 km/h (1 Bft)
21.01.2014 20:24 3,9 C 2,8 C 96 % 1012,1 hPa 0,0 l/m 0 min 0 min 0,0 UV-I 0 W/m 0,0 km/h (0 Bft)
21.01.2014 20:26 3,9 C 2,8 C 96 % 1012,2 hPa 0,0 l/m 0 min 0 min 0,0 UV-I 0 W/m 0,0 km/h (0 Bft)
21.01.2014 20:28 3,9 C 2,8 C 96 % 1012,2 hPa 0,0 l/m 0 min 0 min 0,0 UV-I 0 W/m 0,0 km/h (0 Bft)
21.01.2014 20:30 3,9 C 2,8 C 96 % 1012,1 hPa 0,0 l/m 0 min 0 min 0,0 UV-I 0 W/m 0,0 km/h (0 Bft)
21.01.2014 20:32 3,9 C 2,8 C 96 % 1012,1 hPa 0,0 l/m 0 min 0 min 0,0 UV-I 0 W/m 0,0 km/h (0 Bft)
21.01.2014 20:34 3,9 C 2,8 C 96 % 1012,1 hPa 0,0 l/m 0 min 0 min 0,0 UV-I 0 W/m 0,0 km/h (0 Bft)
21.01.2014 20:36 3,9 C 2,8 C 96 % 1012,1 hPa 0,0 l/m 0 min 0 min 0,0 UV-I 0 W/m 0,0 km/h (0 Bft)
21.01.2014 20:38 3,9 C 2,8 C 96 % 1012,1 hPa 0,0 l/m 0 min 0 min 0,0 UV-I 0 W/m 0,0 km/h (0 Bft)
21.01.2014 20:40 3,9 C 2,8 C 96 % 1012,2 hPa 0,0 l/m 0 min 0 min 0,0 UV-I 0 W/m 0,0 km/h (0 Bft)
21.01.2014 20:42 3,9 C 2,8 C 96 % 1012,2 hPa 0,0 l/m 0 min 0 min 0,0 UV-I 0 W/m 0,0 km/h (0 Bft)
21.01.2014 20:44 3,9 C 2,8 C 96 % 1012,2 hPa 0,0 l/m 0 min 0 min 0,0 UV-I 0 W/m 0,0 km/h (0 Bft)
21.01.2014 20:46 3,9 C 2,8 C 96 % 1012,2 hPa 0,0 l/m 0 min 0 min 0,0 UV-I 0 W/m 0,0 km/h (0 Bft)
21.01.2014 20:48 3,9 C 2,8 C 96 % 1012,2 hPa 0,0 l/m 0 min 0 min 0,0 UV-I 0 W/m 0,0 km/h (0 Bft)
21.01.2014 20:50 3,9 C 2,8 C 96 % 1012,2 hPa 0,0 l/m 0 min 0 min 0,0 UV-I 0 W/m 0,0 km/h (0 Bft)
21.01.2014 20:52 3,9 C 2,8 C 96 % 1012,2 hPa 0,0 l/m 0 min 0 min 0,0 UV-I 0 W/m 0,0 km/h (0 Bft)
21.01.2014 20:54 3,9 C 2,8 C 96 % 1012,2 hPa 0,0 l/m 0 min 0 min 0,0 UV-I 0 W/m 0,0 km/h (0 Bft)
21.01.2014 20:56 3,9 C 2,8 C 96 % 1012,2 hPa 0,0 l/m 0 min 0 min 0,0 UV-I 0 W/m 0,0 km/h (0 Bft)
21.01.2014 20:58 3,9 C 2,8 C 96 % 1012,2 hPa 0,0 l/m 0 min 0 min 0,0 UV-I 0 W/m 0,0 km/h (0 Bft)
21.01.2014 21:00 3,9 C 2,8 C 96 % 1012,2 hPa 0,0 l/m 0 min 0 min 0,0 UV-I 0 W/m 0,0 km/h (0 Bft)
21.01.2014 21:02 3,9 C 2,8 C 96 % 1012,2 hPa 0,0 l/m 0 min 0 min 0,0 UV-I 0 W/m 0,0 km/h (0 Bft)
21.01.2014 21:04 3,9 C 2,8 C 96 % 1012,2 hPa 0,0 l/m 0 min 0 min 0,0 UV-I 0 W/m 0,0 km/h (0 Bft)
21.01.2014 21:06 3,9 C 2,8 C 96 % 1012,2 hPa 0,0 l/m 0 min 0 min 0,0 UV-I 0 W/m 0,0 km/h (0 Bft)
21.01.2014 21:08 3,9 C 2,8 C 96 % 1012,2 hPa 0,0 l/m 0 min 0 min 0,0 UV-I 0 W/m 0,0 km/h (0 Bft)
21.01.2014 21:10 3,9 C 2,8 C 96 % 1012,2 hPa 0,0 l/m 0 min 0 min 0,0 UV-I 0 W/m 0,0 km/h (0 Bft)
21.01.2014 21:12 3,9 C 2,8 C 96 % 1012,2 hPa 0,0 l/m 0 min 0 min 0,0 UV-I 0 W/m 0,0 km/h (0 Bft)
21.01.2014 21:14 3,9 C 2,8 C 96 % 1012,2 hPa 0,0 l/m 0 min 0 min 0,0 UV-I 0 W/m 0,0 km/h (0 Bft)
21.01.2014 21:16 3,9 C 2,8 C 96 % 1012,2 hPa 0,0 l/m 0 min 0 min 0,0 UV-I 0 W/m 0,0 km/h (0 Bft)
21.01.2014 21:18 3,9 C 2,8 C 96 % 1012,2 hPa 0,0 l/m 0 min 0 min 0,0 UV-I 0 W/m 0,0 km/h (0 Bft)
21.01.2014 21:20 3,9 C 2,8 C 96 % 1012,2 hPa 0,0 l/m 0 min 0 min 0,0 UV-I 0 W/m 0,0 km/h (0 Bft)
21.01.2014 21:22 3,9 C 2,8 C 96 % 1012,2 hPa 0,0 l/m 0 min 0 min 0,0 UV-I 0 W/m 0,0 km/h (0 Bft)
21.01.2014 21:24 3,9 C 2,8 C 96 % 1012,2 hPa 0,0 l/m 0 min 0 min 0,0 UV-I 0 W/m 0,0 km/h (0 Bft)
21.01.2014 21:26 3,9 C 2,8 C 96 % 1012,2 hPa 0,0 l/m 0 min 0 min 0,0 UV-I 0 W/m 0,0 km/h (0 Bft)
21.01.2014 21:28 3,9 C 2,8 C 96 % 1012,2 hPa 0,0 l/m 0 min 0 min 0,0 UV-I 0 W/m 0,0 km/h (0 Bft)
21.01.2014 21:30 3,9 C 2,8 C 96 % 1012,2 hPa 0,0 l/m 0 min 0 min 0,0 UV-I 0 W/m 0,0 km/h (0 Bft)
21.01.2014 21:32 3,9 C 2,8 C 96 % 1012,2 hPa 0,0 l/m 0 min 0 min 0,0 UV-I 0 W/m 0,0 km/h (0 Bft)
21.01.2014 21:34 4,0 C 2,8 C 96 % 1012,2 hPa 0,0 l/m 0 min 0 min 0,0 UV-I 0 W/m 0,0 km/h (0 Bft)
21.01.2014 21:36 4,0 C 2,8 C 96 % 1012,2 hPa 0,0 l/m 0 min 0 min 0,0 UV-I 0 W/m 0,0 km/h (0 Bft)
21.01.2014 21:38 4,0 C 3,3 C 96 % 1012,2 hPa 0,0 l/m 0 min 0 min 0,0 UV-I 0 W/m 0,0 km/h (0 Bft)
21.01.2014 21:40 4,0 C 3,3 C 96 % 1012,2 hPa 0,0 l/m 0 min 0 min 0,0 UV-I 0 W/m 0,0 km/h (0 Bft)
21.01.2014 21:42 4,1 C 3,3 C 96 % 1012,2 hPa 0,0 l/m 0 min 0 min 0,0 UV-I 0 W/m 0,0 km/h (0 Bft)
21.01.2014 21:44 4,1 C 3,3 C 96 % 1012,2 hPa 0,0 l/m 0 min 0 min 0,0 UV-I 0 W/m 0,0 km/h (0 Bft)
21.01.2014 21:46 4,1 C 3,3 C 96 % 1012,2 hPa 0,0 l/m 0 min 0 min 0,0 UV-I 0 W/m 5,1 km/h (1 Bft)
21.01.2014 21:48 4,2 C 3,3 C 96 % 1012,3 hPa 0,0 l/m 0 min 0 min 0,0 UV-I 0 W/m 0,0 km/h (0 Bft)
21.01.2014 21:50 4,2 C 3,3 C 96 % 1012,3 hPa 0,0 l/m 0 min 0 min 0,0 UV-I 0 W/m 5,1 km/h (1 Bft)
21.01.2014 21:52 4,2 C 3,3 C 96 % 1012,4 hPa 0,0 l/m 0 min 0 min 0,0 UV-I 0 W/m 5,1 km/h (1 Bft)
21.01.2014 21:54 4,2 C 3,3 C 96 % 1012,4 hPa 0,0 l/m 0 min 0 min 0,0 UV-I 0 W/m 0,0 km/h (0 Bft)
21.01.2014 21:56 4,2 C 3,3 C 96 % 1012,4 hPa 0,0 l/m 0 min 0 min 0,0 UV-I 0 W/m 7,7 km/h (2 Bft)
21.01.2014 21:58 4,2 C 3,3 C 96 % 1012,4 hPa 0,0 l/m 0 min 0 min 0,0 UV-I 0 W/m 7,7 km/h (2 Bft)
21.01.2014 22:00 4,2 C 3,3 C 96 % 1012,4 hPa 0,0 l/m 0 min 0 min 0,0 UV-I 0 W/m 0,0 km/h (0 Bft)
21.01.2014 22:02 4,2 C 3,3 C 96 % 1012,4 hPa 0,0 l/m 0 min 0 min 0,0 UV-I 0 W/m 0,0 km/h (0 Bft)
21.01.2014 22:04 4,2 C 2,8 C 96 % 1012,4 hPa 0,0 l/m 0 min 0 min 0,0 UV-I 0 W/m 0,0 km/h (0 Bft)
21.01.2014 22:06 4,2 C 2,8 C 96 % 1012,3 hPa 0,0 l/m 0 min 0 min 0,0 UV-I 0 W/m 10,3 km/h (2 Bft)
21.01.2014 22:08 4,2 C 2,8 C 96 % 1012,4 hPa 0,0 l/m 0 min 0 min 0,0 UV-I 0 W/m 5,1 km/h (1 Bft)
21.01.2014 22:10 4,2 C 2,8 C 96 % 1012,4 hPa 0,0 l/m 0 min 0 min 0,0 UV-I 0 W/m 5,1 km/h (1 Bft)
21.01.2014 22:12 4,2 C 2,8 C 96 % 1012,5 hPa 0,0 l/m 0 min 0 min 0,0 UV-I 0 W/m 0,0 km/h (0 Bft)
21.01.2014 22:14 4,2 C 2,8 C 96 % 1012,3 hPa 0,0 l/m 0 min 0 min 0,0 UV-I 0 W/m 5,1 km/h (1 Bft)
21.01.2014 22:16 4,2 C 2,8 C 96 % 1012,3 hPa 0,0 l/m 0 min 0 min 0,0 UV-I 0 W/m 7,7 km/h (2 Bft)
21.01.2014 22:18 4,2 C 2,8 C 96 % 1012,4 hPa 0,0 l/m 0 min 0 min 0,0 UV-I 0 W/m 7,7 km/h (2 Bft)
21.01.2014 22:20 4,2 C 2,8 C 96 % 1012,4 hPa 0,0 l/m 0 min 0 min 0,0 UV-I 0 W/m 0,0 km/h (0 Bft)
21.01.2014 22:22 4,2 C 2,8 C 96 % 1012,4 hPa 0,0 l/m 0 min 0 min 0,0 UV-I 0 W/m 5,1 km/h (1 Bft)
21.01.2014 22:24 4,2 C 2,8 C 96 % 1012,4 hPa 0,0 l/m 0 min 0 min 0,0 UV-I 0 W/m 2,6 km/h (1 Bft)
21.01.2014 22:26 4,1 C 2,8 C 96 % 1012,4 hPa 0,0 l/m 0 min 0 min 0,0 UV-I 0 W/m 5,1 km/h (1 Bft)
21.01.2014 22:28 4,1 C 2,8 C 96 % 1012,3 hPa 0,0 l/m 0 min 0 min 0,0 UV-I 0 W/m 0,0 km/h (0 Bft)
21.01.2014 22:30 4,1 C 2,8 C 96 % 1012,3 hPa 0,0 l/m 0 min 0 min 0,0 UV-I 0 W/m 7,7 km/h (2 Bft)
21.01.2014 22:32 4,1 C 2,8 C 96 % 1012,3 hPa 0,0 l/m 0 min 0 min 0,0 UV-I 0 W/m 10,3 km/h (2 Bft)
21.01.2014 22:34 4,1 C 2,8 C 96 % 1012,3 hPa 0,0 l/m 0 min 0 min 0,0 UV-I 0 W/m 2,6 km/h (1 Bft)
21.01.2014 22:36 4,1 C 2,8 C 96 % 1012,5 hPa 0,0 l/m 0 min 0 min 0,0 UV-I 0 W/m 15,4 km/h (3 Bft)
21.01.2014 22:38 4,1 C 2,8 C 96 % 1012,5 hPa 0,0 l/m 0 min 0 min 0,0 UV-I 0 W/m 10,3 km/h (2 Bft)
21.01.2014 22:40 4,0 C 2,8 C 96 % 1012,5 hPa 0,0 l/m 0 min 0 min 0,0 UV-I 0 W/m 7,7 km/h (2 Bft)
21.01.2014 22:42 4,0 C 2,8 C 96 % 1012,3 hPa 0,0 l/m 0 min 0 min 0,0 UV-I 0 W/m 7,7 km/h (2 Bft)
21.01.2014 22:44 4,0 C 2,8 C 96 % 1012,3 hPa 0,0 l/m 0 min 0 min 0,0 UV-I 0 W/m 7,7 km/h (2 Bft)
21.01.2014 22:46 4,0 C 2,8 C 96 % 1012,2 hPa 0,0 l/m 0 min 0 min 0,0 UV-I 0 W/m 2,6 km/h (1 Bft)
21.01.2014 22:48 4,0 C 2,8 C 96 % 1012,4 hPa 0,0 l/m 0 min 0 min 0,0 UV-I 0 W/m 12,9 km/h (3 Bft)
21.01.2014 22:50 4,0 C 2,8 C 96 % 1012,4 hPa 0,0 l/m 0 min 0 min 0,0 UV-I 0 W/m 7,7 km/h (2 Bft)
21.01.2014 22:52 3,9 C 2,8 C 96 % 1012,3 hPa 0,0 l/m 0 min 0 min 0,0 UV-I 0 W/m 7,7 km/h (2 Bft)
21.01.2014 22:54 3,9 C 2,8 C 96 % 1012,5 hPa 0,0 l/m 0 min 0 min 0,0 UV-I 0 W/m 0,0 km/h (0 Bft)
21.01.2014 22:56 3,9 C 2,8 C 96 % 1012,5 hPa 0,0 l/m 0 min 0 min 0,0 UV-I 0 W/m 7,7 km/h (2 Bft)
21.01.2014 22:58 3,9 C 2,8 C 96 % 1012,4 hPa 0,0 l/m 0 min 0 min 0,0 UV-I 0 W/m 2,6 km/h (1 Bft)
21.01.2014 23:00 3,9 C 2,8 C 96 % 1012,4 hPa 0,0 l/m 0 min 0 min 0,0 UV-I 0 W/m 2,6 km/h (1 Bft)
21.01.2014 23:02 3,9 C 2,8 C 96 % 1012,4 hPa 0,0 l/m 0 min 0 min 0,0 UV-I 0 W/m 0,0 km/h (0 Bft)
21.01.2014 23:04 3,9 C 2,8 C 96 % 1012,4 hPa 0,0 l/m 0 min 0 min 0,0 UV-I 0 W/m 0,0 km/h (0 Bft)
21.01.2014 23:06 3,9 C 2,8 C 96 % 1012,4 hPa 0,0 l/m 0 min 0 min 0,0 UV-I 0 W/m 2,6 km/h (1 Bft)
21.01.2014 23:08 3,9 C 2,8 C 96 % 1012,4 hPa 0,0 l/m 0 min 0 min 0,0 UV-I 0 W/m 10,3 km/h (2 Bft)
21.01.2014 23:10 3,9 C 2,8 C 96 % 1012,6 hPa 0,0 l/m 0 min 0 min 0,0 UV-I 0 W/m 2,6 km/h (1 Bft)
21.01.2014 23:12 3,8 C 2,8 C 96 % 1012,6 hPa 0,0 l/m 0 min 0 min 0,0 UV-I 0 W/m 7,7 km/h (2 Bft)
21.01.2014 23:14 3,8 C 2,8 C 96 % 1012,5 hPa 0,0 l/m 0 min 0 min 0,0 UV-I 0 W/m 0,0 km/h (0 Bft)
21.01.2014 23:16 3,8 C 2,8 C 96 % 1012,5 hPa 0,0 l/m 0 min 0 min 0,0 UV-I 0 W/m 7,7 km/h (2 Bft)
21.01.2014 23:18 3,8 C 2,8 C 96 % 1012,4 hPa 0,0 l/m 0 min 0 min 0,0 UV-I 0 W/m 0,0 km/h (0 Bft)
21.01.2014 23:20 3,8 C 2,2 C 96 % 1012,5 hPa 0,0 l/m 0 min 0 min 0,0 UV-I 0 W/m 0,0 km/h (0 Bft)
21.01.2014 23:22 3,8 C 2,2 C 96 % 1012,5 hPa 0,0 l/m 0 min 0 min 0,0 UV-I 0 W/m 7,7 km/h (2 Bft)
21.01.2014 23:24 3,8 C 2,2 C 96 % 1012,6 hPa 0,0 l/m 0 min 0 min 0,0 UV-I 0 W/m 15,4 km/h (3 Bft)
21.01.2014 23:26 3,8 C 2,2 C 95 % 1012,6 hPa 0,0 l/m 0 min 0 min 0,0 UV-I 0 W/m 7,7 km/h (2 Bft)
21.01.2014 23:28 3,8 C 2,2 C 95 % 1012,7 hPa 0,0 l/m 0 min 0 min 0,0 UV-I 0 W/m 10,3 km/h (2 Bft)
21.01.2014 23:30 3,7 C 2,2 C 95 % 1012,6 hPa 0,0 l/m 0 min 0 min 0,0 UV-I 0 W/m 10,3 km/h (2 Bft)
21.01.2014 23:32 3,7 C 2,2 C 95 % 1012,5 hPa 0,0 l/m 0 min 0 min 0,0 UV-I 0 W/m 0,0 km/h (0 Bft)
21.01.2014 23:34 3,7 C 2,2 C 95 % 1012,6 hPa 0,0 l/m 0 min 0 min 0,0 UV-I 0 W/m 0,0 km/h (0 Bft)
21.01.2014 23:36 3,7 C 2,2 C 95 % 1012,5 hPa 0,0 l/m 0 min 0 min 0,0 UV-I 0 W/m 5,1 km/h (1 Bft)
21.01.2014 23:38 3,7 C 2,2 C 95 % 1012,6 hPa 0,0 l/m 0 min 0 min 0,0 UV-I 0 W/m 0,0 km/h (0 Bft)
21.01.2014 23:40 3,7 C 2,2 C 95 % 1012,6 hPa 0,0 l/m 0 min 0 min 0,0 UV-I 0 W/m 10,3 km/h (2 Bft)
21.01.2014 23:42 3,7 C 2,2 C 95 % 1012,6 hPa 0,0 l/m 0 min 0 min 0,0 UV-I 0 W/m 5,1 km/h (1 Bft)
21.01.2014 23:44 3,7 C 2,2 C 95 % 1012,7 hPa 0,0 l/m 0 min 0 min 0,0 UV-I 0 W/m 5,1 km/h (1 Bft)
21.01.2014 23:46 3,7 C 2,2 C 95 % 1012,6 hPa 0,0 l/m 0 min 0 min 0,0 UV-I 0 W/m 10,3 km/h (2 Bft)
21.01.2014 23:48 3,6 C 2,2 C 95 % 1012,6 hPa 0,0 l/m 0 min 0 min 0,0 UV-I 0 W/m 7,7 km/h (2 Bft)
21.01.2014 23:50 3,6 C 2,2 C 95 % 1012,5 hPa 0,0 l/m 0 min 0 min 0,0 UV-I 0 W/m 5,1 km/h (1 Bft)
21.01.2014 23:52 3,6 C 2,2 C 95 % 1012,6 hPa 0,0 l/m 0 min 0 min 0,0 UV-I 0 W/m 0,0 km/h (0 Bft)
21.01.2014 23:54 3,6 C 2,2 C 95 % 1012,6 hPa 0,0 l/m 0 min 0 min 0,0 UV-I 0 W/m 0,0 km/h (0 Bft)
21.01.2014 23:56 3,6 C 2,2 C 95 % 1012,6 hPa 0,0 l/m 0 min 0 min 0,0 UV-I 0 W/m 0,0 km/h (0 Bft)
21.01.2014 23:58 3,6 C 2,2 C 95 % 1012,6 hPa 0,0 l/m 0 min 0 min 0,0 UV-I 0 W/m 7,7 km/h (2 Bft)
_ Min-Zeit 03:20 00:00 15:38 00:00 - - - - - 00:02
Minimum _ 1,3 C 0,6 C 93 % 1009,1 hPa - - - - - 0,0 km/h (0 Bft)
_ Max-Zeit 21:48 13:34 09:42 23:28 07:16 00:00 06:28 00:00 11:08 22:36
Maximum _ 4,2 C 3,3 C 98 % 1012,7 hPa 0,2 l/m 0 min 2 min 0,0 UV-I 95 W/m 15,4 km/h
W (3 Bft)
Durchschnitt _ 2,8 C 1,9 C 96 % 1011,3 hPa #0,4 l/m #0 min. #1:14 h 0,0 UV-I 34 W/m 0,8 km/h (0 Bft)
© 2014 W. Hausmann